Another Hard Day at the Office Weather Stats

 
 
 

High monthly outside Temperature, 25.1 , C
Low monthly outside Temperature, 11.8 , C
High yearly outside Temperature, 31.9 , C
Low yearly outside Temperature, 0.7 , C

Low monthly barometer, 1019.0 , mb
High monthly barometer, 1022.6 , mb
Low yearly barometer, 976.8 , mb
High yearly barometer 1035.7 , mb

High wind speed, 15.0 , mph
Time of High wind speed, 6:32 , mph
High monthly wind speed, 20.0 , mph
High yearly wind speed, 64.0 , mph

 

 




3125
                    Temp     Hi    Low   Out    Dew  Wind  Wind   Wind    Hi    Hi   Wind   Heat    THW                Rain    Heat    Cool    In     In    In     In     In   In Air  Wind  Wind    ISS   Arc.
  Date    Time     Out   Temp   Temp   Hum    Pt. Speed   Dir    Run Speed   Dir  Chill  Index  Index   Bar    Rain  Rate    D-D     D-D    Temp   Hum    Dew   Heat    EMC Density  Samp   Tx   Recept  Int.
---------------------------------------------------------------------------------------------------------------------------------------------------------------------------------------------------------------
 1/09/14   0:05   14.6   14.6   14.6    87   12.4   3.0    NW   0.25   5.0   NNW   14.6   14.6   14.6  1019.3  0.00   0.0   0.013   0.000   25.6    47   13.4   25.4   8.69 1.1714     70    1     61.4    5 
 1/09/14   0:10   14.6   14.6   14.6    87   12.4   3.0   WNW   0.25   5.0    NW   14.6   14.6   14.6  1019.3  0.00   0.0   0.013   0.000   25.4    48   13.6   25.3   8.90 1.1719    116    1    100.0    5 
 1/09/14   0:15   14.4   14.6   14.4    87   12.3   5.0     W   0.42   8.0     W   14.2   14.4   14.2  1019.4  0.00   0.0   0.014   0.000   25.3    48   13.5   25.2   8.90 1.1726    117    1    100.0    5 
 1/09/14   0:20   14.4   14.4   14.4    87   12.3   4.0     W   0.33   5.0     W   14.4   14.4   14.4  1019.4  0.00   0.0   0.014   0.000   25.2    49   13.7   25.1   9.00 1.1725    117    1    100.0    5 
 1/09/14   0:25   14.4   14.4   14.4    87   12.3   3.0     W   0.25   5.0   WNW   14.4   14.4   14.4  1019.5  0.00   0.0   0.014   0.000   25.1    49   13.6   25.0   9.01 1.1731    117    1    100.0    5 
 1/09/14   0:30   14.3   14.4   14.3    87   12.2   3.0   WNW   0.25   6.0     W   14.3   14.3   14.3  1019.5  0.00   0.0   0.014   0.000   25.1    49   13.6   24.9   9.01 1.1734    118    1    100.0    5 
 1/09/14   0:35   14.3   14.3   14.3    87   12.2   2.0    NW   0.17   5.0    NW   14.3   14.3   14.3  1019.5  0.00   0.0   0.014   0.000   24.9    49   13.5   24.8   9.01 1.1740    117    1    100.0    5 
 1/09/14   0:40   14.3   14.3   14.3    87   12.1   2.0    NW   0.17   3.0    NW   14.3   14.3   14.3  1019.5  0.00   0.0   0.014   0.000   24.8    49   13.4   24.7   9.02 1.1745    117    1    100.0    5 
 1/09/14   0:45   14.2   14.3   14.2    87   12.1   2.0    NW   0.17   4.0   WNW   14.2   14.2   14.2  1019.4  0.00   0.0   0.014   0.000   24.8    49   13.3   24.7   9.02 1.1747    117    1    100.0    5 
 1/09/14   0:50   14.2   14.2   14.2    87   12.0   3.0    NW   0.25   4.0   WNW   14.2   14.2   14.2  1019.4  0.00   0.0   0.014   0.000   24.7    49   13.2   24.6   9.02 1.1753    117    1    100.0    5 
 1/09/14   0:55   14.2   14.2   14.1    87   12.0   3.0    NW   0.25   5.0    NW   14.2   14.2   14.2  1019.4  0.00   0.0   0.014   0.000   24.6    49   13.1   24.5   9.03 1.1759    117    1    100.0    5 
 1/09/14   1:00   14.1   14.2   14.1    87   12.0   1.0    NW   0.08   3.0    NW   14.1   14.1   14.1  1019.4  0.00   0.0   0.015   0.000   24.4    49   13.0   24.4   9.03 1.1764    117    1    100.0    5 
 1/09/14   1:05   14.1   14.1   14.1    87   11.9   2.0    NW   0.17   3.0    NW   14.1   14.1   14.1  1019.4  0.00   0.0   0.015   0.000   24.4    49   13.0   24.3   9.03 1.1766    117    1    100.0    5 
 1/09/14   1:10   14.0   14.1   14.0    87   11.9   1.0    NW   0.08   3.0    NW   14.0   14.0   14.0  1019.4  0.00   0.0   0.015   0.000   24.3    50   13.2   24.3   9.23 1.1766    116    1    100.0    5 
 1/09/14   1:15   13.9   14.0   13.9    87   11.8   0.0    NW   0.00   1.0    NW   13.9   13.9   13.9  1019.5  0.00   0.0   0.015   0.000   24.3    50   13.2   24.3   9.23 1.1768    115    1    100.0    5 
 1/09/14   1:20   13.9   13.9   13.9    87   11.8   0.0    NW   0.00   2.0    NW   13.9   13.9   13.9  1019.5  0.00   0.0   0.015   0.000   24.3    50   13.2   24.3   9.24 1.1770    116    1    100.0    5 
 1/09/14   1:25   13.8   13.9   13.8    87   11.7   0.0    NW   0.00   2.0    NW   13.8   13.8   13.8  1019.6  0.00   0.0   0.016   0.000   24.2    50   13.1   24.2   9.24 1.1774    116    1    100.0    5 
 1/09/14   1:30   13.8   13.8   13.8    88   11.8   3.0   WNW   0.25   4.0     W   13.8   13.8   13.8  1019.6  0.00   0.0   0.016   0.000   24.2    51   13.4   24.3   9.35 1.1770    117    1    100.0    5 
 1/09/14   1:35   13.7   13.8   13.7    88   11.8   3.0     W   0.25   4.0     W   13.7   13.7   13.7  1019.6  0.00   0.0   0.016   0.000   24.2    51   13.4   24.3   9.35 1.1770    117    1    100.0    5 
 1/09/14   1:40   13.7   13.8   13.7    88   11.8   2.0   WNW   0.17   4.0   WNW   13.7   13.7   13.7  1019.5  0.00   0.0   0.016   0.000   24.2    51   13.4   24.2   9.35 1.1772    117    1    100.0    5 
 1/09/14   1:45   13.7   13.7   13.7    88   11.7   2.0     W   0.17   4.0     W   13.7   13.7   13.7  1019.6  0.00   0.0   0.016   0.000   24.1    51   13.3   24.2   9.35 1.1776    117    1    100.0    5 
 1/09/14   1:50   13.6   13.7   13.6    88   11.7   2.0   WNW   0.17   3.0     W   13.6   13.6   13.6  1019.5  0.00   0.0   0.016   0.000   24.1    51   13.3   24.2   9.35 1.1775    117    1    100.0    5 
 1/09/14   1:55   13.6   13.6   13.6    88   11.6   2.0    NW   0.17   4.0    NW   13.6   13.6   13.6  1019.4  0.00   0.0   0.017   0.000   24.1    51   13.3   24.1   9.35 1.1777    117    1    100.0    5 
 1/09/14   2:00   13.5   13.6   13.5    88   11.6   1.0    NW   0.08   3.0    NW   13.5   13.5   13.5  1019.4  0.00   0.0   0.017   0.000   23.9    50   12.9   24.0   9.25 1.1786    116    1    100.0    5 
 1/09/14   2:05   13.4   13.5   13.4    88   11.5   0.0   ---   0.00   0.0   ---   13.4   13.4   13.4  1019.4  0.00   0.0   0.017   0.000   23.9    51   13.1   24.0   9.35 1.1785    116    1    100.0    5 
 1/09/14   2:10   13.4   13.4   13.4    88   11.5   1.0    NW   0.08   3.0    NW   13.4   13.4   13.4  1019.4  0.00   0.0   0.017   0.000   23.9    51   13.1   24.0   9.35 1.1785    116    1    100.0    5 
 1/09/14   2:15   13.4   13.4   13.4    89   11.7   2.0    NW   0.17   3.0    NW   13.4   13.5   13.5  1019.4  0.00   0.0   0.017   0.000   23.8    51   13.1   23.9   9.35 1.1787    117    1    100.0    5 
 1/09/14   2:20   13.4   13.4   13.4    89   11.6   2.0   WNW   0.17   4.0   WNW   13.4   13.4   13.4  1019.4  0.00   0.0   0.017   0.000   23.8    51   13.0   23.8   9.35 1.1791    117    1    100.0    5 
 1/09/14   2:25   13.4   13.4   13.4    89   11.6   2.0   WNW   0.17   3.0   WNW   13.4   13.4   13.4  1019.5  0.00   0.0   0.017   0.000   23.8    51   13.0   23.8   9.35 1.1791    116    1    100.0    5 
 1/09/14   2:30   13.4   13.4   13.4    89   11.6   2.0   WNW   0.17   3.0   WNW   13.4   13.4   13.4  1019.5  0.00   0.0   0.017   0.000   23.7    51   13.0   23.8   9.36 1.1794    116    1    100.0    5 
 1/09/14   2:35   13.3   13.4   13.3    89   11.6   1.0   WNW   0.08   2.0   WNW   13.3   13.4   13.4  1019.5  0.00   0.0   0.017   0.000   23.7    51   13.0   23.8   9.36 1.1795    118    1    100.0    5 
 1/09/14   2:40   13.3   13.3   13.3    89   11.5   1.0   WNW   0.08   3.0   WNW   13.3   13.3   13.3  1019.5  0.00   0.0   0.018   0.000   23.7    51   12.9   23.7   9.36 1.1797    117    1    100.0    5 
 1/09/14   2:45   13.2   13.3   13.2    89   11.4   2.0   WNW   0.17   3.0   WNW   13.2   13.3   13.3  1019.5  0.00   0.0   0.018   0.000   23.6    51   12.8   23.6   9.36 1.1802    116    1    100.0    5 
 1/09/14   2:50   13.3   13.3   13.2    89   11.5   3.0     W   0.25   4.0     W   13.3   13.3   13.3  1019.4  0.00   0.0   0.018   0.000   23.6    51   12.8   23.6   9.36 1.1802    116    1    100.0    5 
 1/09/14   2:55   13.2   13.3   13.2    89   11.4   2.0   WNW   0.17   4.0   WNW   13.2   13.3   13.3  1019.5  0.00   0.0   0.018   0.000   23.5    51   12.8   23.4   9.36 1.1805    115    1    100.0    5 
 1/09/14   3:00   13.2   13.2   13.2    89   11.4   2.0   WNW   0.17   4.0   WNW   13.2   13.2   13.2  1019.4  0.00   0.0   0.018   0.000   23.4    51   12.7   23.4   9.37 1.1808    117    1    100.0    5 
 1/09/14   3:05   13.1   13.2   13.1    89   11.3   2.0    NW   0.17   3.0   WNW   13.1   13.2   13.2  1019.4  0.00   0.0   0.018   0.000   23.4    51   12.7   23.3   9.37 1.1810    116    1    100.0    5 
 1/09/14   3:10   13.1   13.1   13.1    89   11.3   2.0   WNW   0.17   4.0   WNW   13.1   13.1   13.1  1019.5  0.00   0.0   0.018   0.000   23.3    51   12.6   23.2   9.37 1.1814    117    1    100.0    5 
 1/09/14   3:15   13.0   13.1   13.0    89   11.2   1.0    NW   0.08   3.0    NW   13.0   13.1   13.1  1019.5  0.00   0.0   0.019   0.000   23.3    51   12.6   23.2   9.37 1.1816    117    1    100.0    5 
 1/09/14   3:20   12.9   13.0   12.9    89   11.2   2.0    NW   0.17   4.0   WNW   12.9   13.0   13.0  1019.6  0.00   0.0   0.019   0.000   23.2    51   12.5   23.1   9.37 1.1820    117    1    100.0    5 
 1/09/14   3:25   12.9   12.9   12.9    89   11.1   3.0    NW   0.25   4.0    NW   12.9   12.9   12.9  1019.6  0.00   0.0   0.019   0.000   23.1    51   12.4   22.9   9.38 1.1827    116    1    100.0    5 
 1/09/14   3:30   12.8   12.9   12.8    90   11.2   3.0    NW   0.25   5.0    NW   12.8   12.9   12.9  1019.6  0.00   0.0   0.019   0.000   23.1    51   12.4   22.9   9.38 1.1829    117    1    100.0    5 
 1/09/14   3:35   12.8   12.8   12.8    90   11.2   3.0    NW   0.25   5.0   WNW   12.8   12.9   12.9  1019.6  0.00   0.0   0.019   0.000   22.9    51   12.3   22.8   9.38 1.1835    117    1    100.0    5 
 1/09/14   3:40   12.8   12.8   12.8    90   11.2   3.0    NW   0.25   4.0    NW   12.8   12.8   12.8  1019.6  0.00   0.0   0.019   0.000   22.9    52   12.5   22.7   9.59 1.1835    117    1    100.0    5 
 1/09/14   3:45   12.7   12.8   12.7    90   11.1   3.0    NW   0.25   5.0    NW   12.7   12.8   12.8  1019.6  0.00   0.0   0.019   0.000   22.8    52   12.4   22.6   9.59 1.1840    115    1    100.0    5 
 1/09/14   3:50   12.7   12.7   12.7    90   11.1   2.0    NW   0.17   4.0    NW   12.7   12.7   12.7  1019.7  0.00   0.0   0.020   0.000   22.7    52   12.3   22.4   9.59 1.1846    117    1    100.0    5 
 1/09/14   3:55   12.7   12.7   12.7    90   11.1   2.0    NW   0.17   4.0    NW   12.7   12.7   12.7  1019.6  0.00   0.0   0.020   0.000   22.6    52   12.3   22.4   9.60 1.1848    117    1    100.0    5 
 1/09/14   4:00   12.6   12.7   12.6    90   11.0   2.0    NW   0.17   3.0    NW   12.6   12.6   12.6  1019.6  0.00   0.0   0.020   0.000   22.5    52   12.2   22.2   9.60 1.1854    116    1    100.0    5 
 1/09/14   4:05   12.5   12.6   12.5    90   10.9   2.0    NW   0.17   3.0    NW   12.5   12.6   12.6  1019.6  0.00   0.0   0.020   0.000   22.4    52   12.0   22.1   9.60 1.1860    117    1    100.0    5 
 1/09/14   4:10   12.4   12.5   12.4    90   10.8   1.0    NW   0.08   2.0    NW   12.4   12.5   12.5  1019.6  0.00   0.0   0.020   0.000   22.3    52   12.0   21.9   9.61 1.1862    117    1    100.0    5 
 1/09/14   4:15   12.4   12.4   12.4    90   10.8   2.0    NW   0.17   3.0    NW   12.4   12.4   12.4  1019.5  0.00   0.0   0.021   0.000   22.3    52   11.9   21.9   9.61 1.1864    117    1    100.0    5 
 1/09/14   4:20   12.4   12.4   12.4    90   10.8   2.0    NW   0.17   3.0    NW   12.4   12.4   12.4  1019.5  0.00   0.0   0.021   0.000   22.3    52   11.9   21.9   9.61 1.1863    117    1    100.0    5 
 1/09/14   4:25   12.3   12.4   12.3    90   10.7   2.0    NW   0.17   3.0    NW   12.3   12.4   12.4  1019.5  0.00   0.0   0.021   0.000   22.2    52   11.9   21.8   9.61 1.1866    117    1    100.0    5 
 1/09/14   4:30   12.3   12.3   12.3    91   10.9   2.0   WNW   0.17   3.0    NW   12.3   12.3   12.3  1019.5  0.00   0.0   0.021   0.000   22.2    52   11.8   21.7   9.61 1.1870    116    1    100.0    5 
 1/09/14   4:35   12.3   12.3   12.3    91   10.9   2.0   WNW   0.17   4.0   WNW   12.3   12.3   12.3  1019.4  0.00   0.0   0.021   0.000   22.1    52   11.8   21.7   9.61 1.1871    115    1    100.0    5 
 1/09/14   4:40   12.3   12.3   12.3    91   10.9   2.0   WNW   0.17   4.0    NW   12.3   12.3   12.3  1019.4  0.00   0.0   0.021   0.000   22.1    53   12.0   21.6   9.78 1.1870    117    1    100.0    5 
 1/09/14   4:45   12.3   12.3   12.3    91   10.9   2.0   WNW   0.17   5.0    NW   12.3   12.3   12.3  1019.4  0.00   0.0   0.021   0.000   22.1    53   12.0   21.6   9.78 1.1870    117    1    100.0    5 
 1/09/14   4:50   12.3   12.3   12.3    91   10.9   3.0    NW   0.25   5.0    NW   12.3   12.3   12.3  1019.4  0.00   0.0   0.021   0.000   22.0    53   12.0   21.5   9.79 1.1873    117    1    100.0    5 
 1/09/14   4:55   12.3   12.3   12.3    91   10.9   4.0   WNW   0.33   7.0   WNW   12.0   12.3   12.1  1019.4  0.00   0.0   0.021   0.000   22.0    53   12.0   21.5   9.79 1.1873    117    1    100.0    5 
 1/09/14   5:00   12.3   12.3   12.3    91   10.9   4.0   WNW   0.33   6.0   WNW   12.0   12.3   12.1  1019.4  0.00   0.0   0.021   0.000   21.9    53   11.9   21.3   9.79 1.1878    117    1    100.0    5 
 1/09/14   5:05   12.3   12.3   12.3    91   10.9   4.0    NW   0.33   6.0   WNW   12.0   12.3   12.1  1019.4  0.00   0.0   0.021   0.000   21.8    54   12.1   21.3   9.92 1.1879    117    1    100.0    5 
 1/09/14   5:10   12.2   12.3   12.2    91   10.8   3.0    NW   0.25   5.0    NW   12.2   12.3   12.3  1019.4  0.00   0.0   0.021   0.000   21.8    54   12.1   21.2   9.93 1.1881    116    1    100.0    5 
 1/09/14   5:15   12.2   12.2   12.2    91   10.7   3.0    NW   0.25   5.0    NW   12.2   12.2   12.2  1019.3  0.00   0.0   0.021   0.000   21.7    54   12.0   21.2   9.93 1.1883    117    1    100.0    5 
 1/09/14   5:20   12.1   12.2   12.1    91   10.7   3.0    NW   0.25   5.0    NW   12.1   12.2   12.2  1019.4  0.00   0.0   0.022   0.000   21.7    54   12.0   21.1   9.93 1.1887    116    1    100.0    5 
 1/09/14   5:25   12.1   12.1   12.1    91   10.6   3.0    NW   0.25   6.0    NW   12.1   12.1   12.1  1019.4  0.00   0.0   0.022   0.000   21.7    54   12.0   21.1   9.93 1.1887    117    1    100.0    5 
 1/09/14   5:30   12.1   12.1   12.1    92   10.8   2.0    NW   0.17   4.0   WNW   12.1   12.2   12.2  1019.4  0.00   0.0   0.022   0.000   21.6    54   11.9   21.0   9.93 1.1890    117    1    100.0    5 
 1/09/14   5:35   12.0   12.1   12.0    92   10.7   1.0    NW   0.08   2.0    NW   12.0   12.1   12.1  1019.4  0.00   0.0   0.022   0.000   21.6    54   11.9   21.0   9.93 1.1889    116    1    100.0    5 
 1/09/14   5:40   11.9   12.0   11.9    92   10.7   0.0   ---   0.00   0.0   ---   11.9   12.1   12.1  1019.4  0.00   0.0   0.022   0.000   21.6    54   11.9   21.0   9.93 1.1889    117    1    100.0    5 
 1/09/14   5:45   11.9   12.0   11.9    92   10.7   0.0   ---   0.00   0.0   ---   11.9   12.1   12.1  1019.4  0.00   0.0   0.022   0.000   21.6    54   11.9   21.0   9.93 1.1889    118    1    100.0    5 
 1/09/14   5:50   11.9   11.9   11.9    92   10.7   0.0   ---   0.00   0.0   ---   11.9   12.1   12.1  1019.4  0.00   0.0   0.022   0.000   21.6    54   11.9   21.0   9.93 1.1889    116    1    100.0    5 
 1/09/14   5:55   11.9   11.9   11.9    92   10.6   0.0   ---   0.00   0.0   ---   11.9   12.0   12.0  1019.4  0.00   0.0   0.022   0.000   21.6    55   12.2   21.1  10.13 1.1887    117    1    100.0    5 
 1/09/14   6:00   11.8   11.9   11.8    92   10.6   0.0   ---   0.00   0.0   ---   11.8   11.9   11.9  1019.5  0.00   0.0   0.023   0.000   21.7    55   12.2   21.1  10.13 1.1885    117    1    100.0    5 
 1/09/14   6:05   11.8   11.8   11.8    92   10.6   0.0    NW   0.00   1.0    NW   11.8   11.9   11.9  1019.5  0.00   0.0   0.023   0.000   21.7    55   12.2   21.1  10.13 1.1885    117    1    100.0    5 
 1/09/14   6:10   11.8   11.8   11.8    92   10.6   0.0    NW   0.00   1.0    NW   11.8   11.9   11.9  1019.6  0.00   0.0   0.023   0.000   21.7    54   12.0   21.1   9.93 1.1889    117    1    100.0    5 
 1/09/14   6:15   11.8   11.8   11.8    92   10.6   0.0    NW   0.00   1.0    NW   11.8   11.9   11.9  1019.7  0.00   0.0   0.023   0.000   21.7    54   12.0   21.2   9.93 1.1887    116    1    100.0    5 
 1/09/14   6:20   11.8   11.8   11.8    92   10.6   0.0    NW   0.00   1.0    NW   11.8   11.9   11.9  1019.7  0.00   0.0   0.023   0.000   21.7    54   12.0   21.2   9.93 1.1887    116    1    100.0    5 
 1/09/14   6:25   11.8   11.8   11.8    92   10.5   0.0    NW   0.00   1.0    NW   11.8   11.9   11.9  1019.7  0.00   0.0   0.023   0.000   21.7    54   12.0   21.2   9.93 1.1888    116    1    100.0    5 
 1/09/14   6:30   11.8   11.8   11.8    92   10.5   0.0    NW   0.00   1.0    NW   11.8   11.9   11.9  1019.7  0.00   0.0   0.023   0.000   21.7    54   12.0   21.2   9.93 1.1888    117    1    100.0    5 
 1/09/14   6:35   11.8   11.8   11.8    92   10.6   0.0    NW   0.00   2.0    NW   11.8   11.9   11.9  1019.7  0.00   0.0   0.023   0.000   21.8    54   12.1   21.2   9.93 1.1885    117    1    100.0    5 
 1/09/14   6:40   11.9   11.9   11.8    92   10.6   0.0    NW   0.00   2.0    NW   11.9   12.0   12.0  1019.7  0.00   0.0   0.022   0.000   21.8    54   12.1   21.2   9.93 1.1885    117    1    100.0    5 
 1/09/14   6:45   12.0   12.0   11.9    92   10.7   0.0    NW   0.00   3.0    NW   12.0   12.1   12.1  1019.8  0.00   0.0   0.022   0.000   21.8    54   12.1   21.2   9.93 1.1886    117    1    100.0    5 
 1/09/14   6:50   12.1   12.1   12.0    93   11.0   0.0    NW   0.00   2.0    NW   12.1   12.2   12.2  1019.7  0.00   0.0   0.022   0.000   21.8    54   12.1   21.2   9.93 1.1885    118    1    100.0    5 
 1/09/14   6:55   12.2   12.2   12.1    93   11.1   1.0    NW   0.08   2.0    NW   12.2   12.3   12.3  1019.8  0.00   0.0   0.021   0.000   21.8    54   12.1   21.2   9.93 1.1886    117    1    100.0    5 
 1/09/14   7:00   12.3   12.3   12.2    92   11.0   0.0    NW   0.00   1.0    NW   12.3   12.3   12.3  1019.8  0.00   0.0   0.021   0.000   21.8    54   12.1   21.2   9.93 1.1886    117    1    100.0    5 
 1/09/14   7:05   12.3   12.4   12.3    92   11.1   1.0    NW   0.08   3.0    NW   12.3   12.4   12.4  1019.8  0.00   0.0   0.021   0.000   21.8    54   12.1   21.2   9.93 1.1886    116    1    100.0    5 
 1/09/14   7:10   12.4   12.4   12.4    93   11.3   2.0   WNW   0.17   5.0   WNW   12.4   12.6   12.6  1019.8  0.00   0.0   0.020   0.000   21.7    55   12.3   21.2  10.13 1.1886    116    1    100.0    5 
 1/09/14   7:15   12.6   12.6   12.4    93   11.5   2.0   WNW   0.17   4.0   WNW   12.6   12.7   12.7  1019.8  0.00   0.0   0.020   0.000   21.7    55   12.3   21.2  10.13 1.1886    117    1    100.0    5 
 1/09/14   7:20   12.7   12.7   12.6    93   11.6   2.0   WNW   0.17   4.0   WNW   12.7   12.8   12.8  1019.8  0.00   0.0   0.019   0.000   21.7    55   12.3   21.2  10.13 1.1886    116    1    100.0    5 
 1/09/14   7:25   12.9   12.9   12.7    93   11.8   3.0   WNW   0.25   6.0   WNW   12.9   13.0   13.0  1019.8  0.00   0.0   0.019   0.000   21.7    55   12.2   21.1  10.13 1.1889    116    1    100.0    5 
 1/09/14   7:30   13.1   13.1   12.9    93   11.9   4.0   WNW   0.33   7.0   WNW   12.9   13.2   13.0  1019.8  0.00   0.0   0.018   0.000   21.7    55   12.2   21.1  10.13 1.1889    115    1    100.0    5 
 1/09/14   7:35   13.2   13.2   13.1    93   12.1   4.0   WNW   0.33   6.0     W   13.0   13.3   13.1  1019.8  0.00   0.0   0.018   0.000   21.7    55   12.3   21.2  10.13 1.1886    116    1    100.0    5 
 1/09/14   7:40   13.3   13.3   13.2    93   12.2   4.0   WNW   0.33   7.0   WNW   13.2   13.4   13.3  1019.9  0.00   0.0   0.017   0.000   21.7    56   12.6   21.2  10.33 1.1884    117    1    100.0    5 
 1/09/14   7:45   13.5   13.5   13.3    93   12.4   4.0   WNW   0.33   7.0   WNW   13.4   13.6   13.6  1020.0  0.00   0.0   0.017   0.000   21.7    56   12.6   21.2  10.33 1.1885    117    1    100.0    5 
 1/09/14   7:50   13.7   13.7   13.5    93   12.6   5.0     W   0.42   8.0     W   13.4   13.8   13.5  1020.0  0.00   0.0   0.016   0.000   21.7    56   12.6   21.2  10.33 1.1885    117    1    100.0    5 
 1/09/14   7:55   13.9   13.9   13.7    93   12.8   4.0     W   0.33   8.0     W   13.9   14.1   14.1  1020.0  0.00   0.0   0.015   0.000   21.7    56   12.6   21.2  10.33 1.1885    118    1    100.0    5 
 1/09/14   8:00   14.2   14.2   13.9    92   12.9   4.0     W   0.33   7.0     W   14.2   14.3   14.3  1020.1  0.00   0.0   0.014   0.000   21.8    57   12.9   21.4  10.50 1.1880    117    1    100.0    5 
 1/09/14   8:05   14.4   14.4   14.2    92   13.1   4.0     W   0.33   8.0     W   14.4   14.5   14.5  1020.0  0.00   0.0   0.014   0.000   21.8    57   12.9   21.4  10.50 1.1876    117    1    100.0    5 
 1/09/14   8:10   14.5   14.5   14.4    92   13.2   5.0   WNW   0.42   8.0   WNW   14.3   14.6   14.4  1020.1  0.00   0.0   0.013   0.000   21.8    57   12.9   21.4  10.50 1.1877    116    1    100.0    5 
 1/09/14   8:15   14.6   14.6   14.5    91   13.2   5.0   WNW   0.42   8.0   WNW   14.4   14.7   14.6  1020.2  0.00   0.0   0.013   0.000   21.8    57   12.9   21.4  10.50 1.1878    117    1    100.0    5 
 1/09/14   8:20   14.7   14.7   14.6    91   13.3   4.0   WNW   0.33   7.0   WNW   14.7   14.8   14.8  1020.2  0.00   0.0   0.013   0.000   21.9    57   13.0   21.6  10.49 1.1875    116    1    100.0    5 
 1/09/14   8:25   14.9   14.9   14.7    91   13.4   3.0     W   0.25   5.0     W   14.9   15.0   15.0  1020.2  0.00   0.0   0.012   0.000   21.9    57   13.0   21.6  10.49 1.1875    117    1    100.0    5 
 1/09/14   8:30   15.1   15.1   14.9    91   13.6   4.0   WNW   0.33   7.0   WNW   15.1   15.2   15.2  1020.2  0.00   0.0   0.011   0.000   21.9    57   13.0   21.6  10.49 1.1873    116    1    100.0    5 
 1/09/14   8:35   15.2   15.2   15.1    91   13.8   3.0     W   0.25   6.0     W   15.2   15.4   15.4  1020.2  0.00   0.0   0.011   0.000   21.9    57   13.0   21.6  10.49 1.1873    117    1    100.0    5 
 1/09/14   8:40   15.4   15.4   15.2    90   13.8   3.0   WNW   0.25   6.0   WNW   15.4   15.6   15.6  1020.2  0.00   0.0   0.010   0.000   22.0    57   13.1   21.7  10.49 1.1870    117    1    100.0    5 
 1/09/14   8:45   15.6   15.6   15.4    90   13.9   4.0   WNW   0.33   9.0   WNW   15.6   15.7   15.7  1020.2  0.00   0.0   0.010   0.000   22.0    57   13.1   21.7  10.49 1.1870    117    1    100.0    5 
 1/09/14   8:50   15.7   15.7   15.6    89   13.9   6.0   WNW   0.50   9.0   WNW   15.4   15.8   15.6  1020.2  0.00   0.0   0.009   0.000   22.1    58   13.4   21.8  10.68 1.1864    116    1    100.0    5 
 1/09/14   8:55   15.8   15.8   15.7    89   14.0   5.0   WNW   0.42   8.0    NW   15.8   16.0   16.0  1020.2  0.00   0.0   0.009   0.000   22.1    58   13.4   21.8  10.68 1.1864    118    1    100.0    5 
 1/09/14   9:00   15.9   15.9   15.8    88   14.0   5.0     W   0.42   9.0     W   15.9   16.1   16.1  1020.2  0.00   0.0   0.008   0.000   22.1    58   13.5   21.9  10.68 1.1862    117    1    100.0    5 
 1/09/14   9:05   15.9   15.9   15.9    88   14.0   5.0     W   0.42   8.0     W   15.9   16.1   16.1  1020.2  0.00   0.0   0.008   0.000   22.1    58   13.5   21.9  10.68 1.1862    116    1    100.0    5 
 1/09/14   9:10   16.1   16.1   15.9    88   14.1   4.0     W   0.33   8.0   WNW   16.1   16.2   16.2  1020.3  0.00   0.0   0.008   0.000   22.2    58   13.6   22.1  10.67 1.1857    117    1    100.0    5 
 1/09/14   9:15   16.2   16.2   16.1    88   14.2   6.0     W   0.50  10.0   WSW   16.1   16.3   16.2  1020.3  0.00   0.0   0.008   0.000   22.2    58   13.6   22.1  10.67 1.1857    117    1    100.0    5 
 1/09/14   9:20   16.4   16.4   16.2    88   14.4   6.0     W   0.50  11.0     W   16.3   16.6   16.6  1020.3  0.00   0.0   0.007   0.000   22.3    58   13.6   22.2  10.67 1.1854    117    1    100.0    5 
 1/09/14   9:25   16.4   16.4   16.4    87   14.3   9.0     W   0.75  13.0     W   15.3   16.6   15.5  1020.2  0.00   0.0   0.007   0.000   22.3    58   13.6   22.2  10.67 1.1853    117    1    100.0    5 
 1/09/14   9:30   16.6   16.6   16.4    86   14.2   9.0     W   0.75  13.0     W   15.4   16.7   15.6  1020.1  0.00   0.0   0.006   0.000   22.3    58   13.7   22.2  10.66 1.1849    116    1    100.0    5 
 1/09/14   9:35   16.6   16.6   16.6    86   14.3   9.0     W   0.75  15.0     W   15.5   16.8   15.7  1020.3  0.00   0.0   0.006   0.000   22.3    58   13.7   22.2  10.66 1.1851    117    1    100.0    5 
 1/09/14   9:40   16.6   16.6   16.6    86   14.3   8.0     W   0.67  13.0   WSW   16.0   16.8   16.2  1020.2  0.00   0.0   0.006   0.000   22.4    58   13.7   22.3  10.66 1.1847    117    1    100.0    5 
 1/09/14   9:45   16.6   16.6   16.6    86   14.2   6.0     W   0.50  11.0   WNW   16.6   16.7   16.7  1020.2  0.00   0.0   0.006   0.000   22.4    58   13.8   22.4  10.65 1.1844    117    1    100.0    5 
 1/09/14   9:50   16.4   16.6   16.4    87   14.3   9.0   WSW   0.75  11.0   WSW   15.3   16.6   15.5  1020.2  0.00   0.0   0.007   0.000   22.6    58   13.9   22.6  10.65 1.1839    117    1    100.0    5 
 1/09/14   9:55   16.6   16.6   16.4    87   14.4   8.0   WSW   0.67  11.0   WSW   15.9   16.8   16.2  1020.3  0.00   0.0   0.006   0.000   22.6    58   13.9   22.7  10.64 1.1836    117    1    100.0    5 
 1/09/14  10:00   16.7   16.7   16.6    88   14.7   9.0   WSW   0.75  12.0   WSW   15.6   16.9   15.8  1020.3  0.00   0.0   0.006   0.000   22.8    59   14.3   22.9  10.83 1.1824    118    1    100.0    5 
 1/09/14  10:05   16.7   16.7   16.7    87   14.5   8.0   WSW   0.67  11.0   WSW   16.1   16.9   16.3  1020.4  0.00   0.0   0.006   0.000   22.9    59   14.5   23.1  10.82 1.1820    117    1    100.0    5 
 1/09/14  10:10   16.7   16.8   16.7    87   14.5   7.0     W   0.58  12.0     W   16.6   16.9   16.8  1020.3  0.00   0.0   0.006   0.000   22.9    59   14.5   23.2  10.82 1.1817    116    1    100.0    5 
 1/09/14  10:15   16.7   16.7   16.7    87   14.5   8.0   WSW   0.67  11.0     W   16.1   16.9   16.3  1020.4  0.00   0.0   0.006   0.000   23.1    58   14.3   23.3  10.61 1.1815    115    1    100.0    5 
 1/09/14  10:20   16.7   16.7   16.7    87   14.5   7.0   WSW   0.58  11.0     W   16.6   16.9   16.8  1020.4  0.00   0.0   0.006   0.000   23.2    58   14.4   23.4  10.60 1.1810    116    1    100.0    5 
 1/09/14  10:25   16.7   16.7   16.7    87   14.5   8.0     W   0.67  14.0   WSW   16.1   16.9   16.3  1020.4  0.00   0.0   0.006   0.000   23.3    58   14.5   23.6  10.59 1.1804    117    1    100.0    5 
 1/09/14  10:30   16.8   16.8   16.7    87   14.7   8.0   WSW   0.67  13.0   WSW   16.3   17.1   16.5  1020.4  0.00   0.0   0.005   0.000   23.3    58   14.6   23.6  10.59 1.1801    117    1    100.0    5 
 1/09/14  10:35   17.0   17.0   16.8    87   14.8  11.0   WSW   0.92  15.0   WSW   15.2   17.3   15.4  1020.4  0.00   0.0   0.005   0.000   23.4    58   14.7   23.7  10.59 1.1797    116    1    100.0    5 
 1/09/14  10:40   17.0   17.0   16.9    88   15.0   8.0     W   0.67  14.0   WSW   16.4   17.3   16.7  1020.4  0.00   0.0   0.005   0.000   23.4    57   14.4   23.7  10.38 1.1799    117    1    100.0    5 
 1/09/14  10:45   16.9   17.0   16.9    87   14.8   8.0     W   0.67  12.0     W   16.4   17.2   16.7  1020.4  0.00   0.0   0.005   0.000   23.6    57   14.5   23.8  10.37 1.1793    115    1    100.0    5 
 1/09/14  10:50   17.0   17.0   16.9    88   15.0  10.0   WSW   0.83  16.0     W   15.6   17.3   15.8  1020.5  0.00   0.0   0.005   0.000   23.7    57   14.6   24.0  10.37 1.1788    115    1    100.0    5 
 1/09/14  10:55   17.1   17.1   16.9    88   15.1  10.0     W   0.83  14.0    SW   15.7   17.4   16.1  1020.5  0.00   0.0   0.004   0.000   23.7    57   14.7   24.1  10.36 1.1786    117    1    100.0    5 
 1/09/14  11:00   17.1   17.1   17.1    88   15.1   9.0   WSW   0.75  13.0     W   16.0   17.4   16.3  1020.4  0.00   0.0   0.004   0.000   23.8    57   14.8   24.2  10.35 1.1779    117    1    100.0    5 
 1/09/14  11:05   16.9   17.1   16.9    89   15.1   9.0   WSW   0.75  12.0   WSW   15.9   17.3   16.2  1020.5  0.00   0.0   0.005   0.000   23.9    57   14.9   24.3  10.35 1.1776    116    1    100.0    5 
 1/09/14  11:10   17.0   17.0   16.9    89   15.2   9.0   WSW   0.75  14.0   WSW   15.9   17.3   16.3  1020.4  0.00   0.0   0.005   0.000   23.9    56   14.6   24.3  10.25 1.1776    116    1    100.0    5 
 1/09/14  11:15   17.1   17.1   17.0    88   15.1   9.0     W   0.75  12.0   WSW   16.0   17.4   16.3  1020.4  0.00   0.0   0.004   0.000   24.1    56   14.7   24.3  10.24 1.1770    115    1    100.0    5 
 1/09/14  11:20   17.2   17.2   17.1    88   15.2   9.0   WSW   0.75  14.0   WSW   16.2   17.5   16.5  1020.4  0.00   0.0   0.004   0.000   24.1    56   14.8   24.4  10.23 1.1767    117    1    100.0    5 
 1/09/14  11:25   17.3   17.3   17.2    88   15.3   9.0   WSW   0.75  14.0   WSW   16.3   17.6   16.6  1020.4  0.00   0.0   0.004   0.000   24.2    56   14.8   24.4  10.23 1.1764    116    1    100.0    5 
 1/09/14  11:30   17.3   17.3   17.2    88   15.3   8.0   WSW   0.67  13.0   WSW   16.8   17.6   17.1  1020.4  0.00   0.0   0.004   0.000   24.2    56   14.9   24.5  10.23 1.1761    117    1    100.0    5 
 1/09/14  11:35   17.2   17.3   17.2    88   15.2  12.0   WSW   1.00  15.0   WSW   15.1   17.5   15.4  1020.4  0.00   0.0   0.004   0.000   24.3    56   14.9   24.5  10.22 1.1759    116    1    100.0    5 
 1/09/14  11:40   17.2   17.2   17.2    89   15.3  11.0   WSW   0.92  18.0   WSW   15.4   17.5   15.7  1020.4  0.00   0.0   0.004   0.000   24.3    56   15.0   24.6  10.22 1.1756    117    1    100.0    5 
 1/09/14  11:45   17.2   17.2   17.2    89   15.3  11.0   WSW   0.92  16.0   WSW   15.4   17.5   15.7  1020.4  0.00   0.0   0.004   0.000   24.4    56   15.0   24.6  10.21 1.1753    117    1    100.0    5 
 1/09/14  11:50   17.3   17.3   17.2    90   15.7  11.0   WSW   0.92  16.0   WSW   15.6   17.7   15.9  1020.3  0.00   0.0   0.003   0.000   24.4    56   15.1   24.7  10.21 1.1750    116    1    100.0    5 
 1/09/14  11:55   17.5   17.5   17.3    89   15.7  13.0   WSW   1.08  16.0   WSW   15.2   17.9   15.6  1020.3  0.00   0.0   0.003   0.000   24.5    56   15.1   24.7  10.21 1.1747    117    1    100.0    5 
 1/09/14  12:00   17.5   17.6   17.5    89   15.7  13.0   WSW   1.08  16.0   WSW   15.2   17.9   15.6  1020.3  0.00   0.0   0.003   0.000   24.6    56   15.2   24.8  10.20 1.1740    116    1    100.0    5 
 1/09/14  12:05   17.4   17.5   17.4    90   15.8  12.0   WSW   1.00  16.0   WSW   15.3   17.8   15.7  1020.3  0.00   0.0   0.003   0.000   24.7    56   15.3   24.9  10.19 1.1738    117    1    100.0    5 
 1/09/14  12:10   17.5   17.5   17.4    90   15.8  11.0   WSW   0.92  15.0   WSW   15.8   17.9   16.2  1020.3  0.00   0.0   0.003   0.000   24.8    56   15.4   25.0  10.19 1.1732    116    1    100.0    5 
 1/09/14  12:15   17.5   17.5   17.4    90   15.8  10.0   WSW   0.83  14.0   WSW   16.2   17.9   16.6  1020.2  0.00   0.0   0.003   0.000   24.8    56   15.5   25.1  10.18 1.1728    117    1    100.0    5 
 1/09/14  12:20   17.5   17.6   17.5    90   15.8  11.0   WSW   0.92  15.0   WSW   15.8   17.9   16.2  1020.2  0.00   0.0   0.003   0.000   24.9    56   15.5   25.1  10.18 1.1725    116    1    100.0    5 
 1/09/14  12:25   17.5   17.6   17.5    90   15.8  11.0   WSW   0.92  15.0   WSW   15.8   17.9   16.2  1020.2  0.00   0.0   0.003   0.000   24.9    56   15.6   25.2  10.17 1.1722    117    1    100.0    5 
 1/09/14  12:30   17.3   17.5   17.3    90   15.7  12.0   WSW   1.00  15.0   WSW   15.2   17.7   15.6  1020.2  0.00   0.0   0.003   0.000   25.0    55   15.3   25.2   9.97 1.1723    116    1    100.0    5 
 1/09/14  12:35   17.3   17.3   17.3    91   15.8  13.0   WSW   1.08  15.0   WSW   14.9   17.7   15.3  1020.2  0.00   0.0   0.004   0.000   25.1    55   15.4   25.3   9.96 1.1717    117    1    100.0    5 
 1/09/14  12:40   17.3   17.3   17.2    91   15.8  12.0   WSW   1.00  15.0   WSW   15.2   17.7   15.6  1020.2  0.00   0.0   0.004   0.000   25.2    55   15.5   25.4   9.96 1.1715    117    1    100.0    5 
 1/09/14  12:45   17.4   17.4   17.3    91   16.0  11.0   WSW   0.92  14.0   WSW   15.7   17.9   16.1  1020.2  0.00   0.0   0.003   0.000   25.2    55   15.5   25.4   9.95 1.1712    117    1    100.0    5 
 1/09/14  12:50   17.5   17.6   17.4    90   15.8  13.0   WSW   1.08  16.0   WSW   15.2   17.9   15.6  1020.1  0.00   0.0   0.003   0.000   25.3    55   15.6   25.5   9.95 1.1708    117    1    100.0    5 
 1/09/14  12:55   17.4   17.5   17.4    90   15.7  14.0   WSW   1.17  17.0   WSW   14.8   17.8   15.2  1020.1  0.00   0.0   0.003   0.000   25.3    55   15.6   25.5   9.95 1.1708    117    1    100.0    5 
 1/09/14  13:00   17.6   17.6   17.4    91   16.1  13.0   WSW   1.08  17.0   WSW   15.3   18.1   15.7  1020.1  0.00   0.0   0.003   0.000   25.4    55   15.7   25.6   9.94 1.1702    116    1    100.0    5 
 1/09/14  13:05   17.5   17.6   17.5    90   15.8  13.0   WSW   1.08  18.0    SW   15.2   17.9   15.6  1020.0  0.00   0.0   0.003   0.000   25.4    55   15.7   25.7   9.94 1.1698    116    1    100.0    5 
 1/09/14  13:10   17.4   17.5   17.4    90   15.8  15.0   WSW   1.25  17.0   WSW   14.7   17.8   15.1  1020.1  0.00   0.0   0.003   0.000   25.5    55   15.8   25.8   9.93 1.1696    118    1    100.0    5 
 1/09/14  13:15   17.4   17.5   17.4    90   15.8  13.0   WSW   1.08  16.0   WSW   15.1   17.8   15.4  1020.1  0.00   0.0   0.003   0.000   25.6    55   15.8   25.8   9.93 1.1693    115    1    100.0    5 
 1/09/14  13:20   17.4   17.4   17.4    90   15.8  13.0   WSW   1.08  16.0   WSW   15.1   17.8   15.4  1020.1  0.00   0.0   0.003   0.000   25.6    55   15.9   25.9   9.93 1.1690    116    1    100.0    5 
 1/09/14  13:25   17.6   17.6   17.4    90   15.9  12.0   WSW   1.00  17.0   WSW   15.5   18.0   15.9  1019.9  0.00   0.0   0.003   0.000   25.6    55   15.9   25.9   9.93 1.1689    116    1    100.0    5 
 1/09/14  13:30   17.6   17.6   17.5    90   15.9  12.0   WSW   1.00  16.0   WSW   15.5   18.0   15.9  1020.0  0.00   0.0   0.003   0.000   25.7    55   15.9   25.9   9.92 1.1686    116    1    100.0    5 
 1/09/14  13:35   17.6   17.6   17.6    90   16.0  13.0   WSW   1.08  16.0   WSW   15.3   18.1   15.7  1019.9  0.00   0.0   0.003   0.000   25.7    55   16.0   26.0   9.92 1.1682    117    1    100.0    5 
 1/09/14  13:40   17.6   17.6   17.6    90   15.9  14.0   WSW   1.17  17.0   WSW   15.0   18.0   15.4  1019.9  0.00   0.0   0.003   0.000   25.8    54   15.8   26.0   9.78 1.1684    117    1    100.0    5 
 1/09/14  13:45   17.6   17.6   17.6    91   16.1  13.0   WSW   1.08  16.0   WSW   15.2   18.0   15.7  1019.9  0.00   0.0   0.003   0.000   25.8    54   15.8   26.0   9.78 1.1684    117    1    100.0    5 
 1/09/14  13:50   17.7   17.7   17.6    91   16.2  13.0   WSW   1.08  16.0   WSW   15.4   18.2   15.8  1020.0  0.00   0.0   0.002   0.000   25.9    54   15.9   26.2   9.78 1.1679    116    1    100.0    5 
 1/09/14  13:55   17.8   17.8   17.7    91   16.3  13.0   WSW   1.08  17.0   WSW   15.4   18.2   15.9  1020.0  0.00   0.0   0.002   0.000   25.9    54   15.9   26.2   9.78 1.1679    116    1    100.0    5 
 1/09/14  14:00   17.8   17.8   17.8    90   16.2  14.0   WSW   1.17  16.0   WSW   15.3   18.3   15.7  1019.9  0.00   0.0   0.002   0.000   25.9    54   15.9   26.2   9.78 1.1675    117    1    100.0    5 
 1/09/14  14:05   18.1   18.1   17.8    90   16.4  12.0   WSW   1.00  15.0   WSW   16.1   18.6   16.6  1019.9  0.00   0.0   0.001   0.000   26.0    54   16.0   26.3   9.77 1.1673    115    1    100.0    5 
 1/09/14  14:10   17.9   18.0   17.9    91   16.4  12.0   WSW   1.00  15.0   WSW   15.8   18.4   16.3  1019.9  0.00   0.0   0.002   0.000   26.1    54   16.0   26.3   9.77 1.1669    117    1    100.0    5 
 1/09/14  14:15   18.1   18.1   17.8    91   16.6  10.0   WSW   0.83  14.0   WSW   16.8   18.6   17.3  1019.8  0.00   0.0   0.001   0.000   26.1    54   16.1   26.4   9.77 1.1666    116    1    100.0    5 
 1/09/14  14:20   18.3   18.3   18.1    89   16.4  13.0   WSW   1.08  16.0   WSW   16.1   18.8   16.6  1019.8  0.00   0.0   0.000   0.000   26.2    55   16.4   26.5   9.89 1.1658    117    1    100.0    5 
 1/09/14  14:25   18.3   18.3   18.2    89   16.5  14.0   WSW   1.17  17.0   WSW   15.9   18.9   16.4  1019.8  0.00   0.0   0.000   0.000   26.2    55   16.5   26.6   9.88 1.1655    116    1    100.0    5 
 1/09/14  14:30   18.3   18.4   18.3    88   16.3  14.0   WSW   1.17  16.0   WSW   15.9   18.8   16.4  1019.8  0.00   0.0   0.000   0.000   26.3    55   16.5   26.6   9.88 1.1653    116    1    100.0    5 
 1/09/14  14:35   18.4   18.4   18.3    89   16.5  13.0   WSW   1.08  16.0   WSW   16.2   18.9   16.7  1019.8  0.00   0.0   0.000   0.000   26.4    56   16.9   26.8  10.07 1.1643    117    1    100.0    5 
 1/09/14  14:40   18.3   18.4   18.3    89   16.5  13.0   WSW   1.08  17.0   WSW   16.1   18.9   16.7  1019.7  0.00   0.0   0.000   0.000   26.4    55   16.7   26.8   9.87 1.1643    117    1    100.0    5 
 1/09/14  14:45   18.2   18.3   18.2    89   16.4  14.0   WSW   1.17  17.0   WSW   15.8   18.7   16.3  1019.7  0.00   0.0   0.000   0.000   26.5    56   17.0   26.9  10.06 1.1636    116    1    100.0    5 
 1/09/14  14:50   18.2   18.2   18.2    89   16.3  14.0   WSW   1.17  17.0   WSW   15.7   18.7   16.2  1019.7  0.00   0.0   0.001   0.000   26.6    56   17.1   27.1  10.05 1.1630    117    1    100.0    5 
 1/09/14  14:55   18.1   18.2   18.1    89   16.3  14.0   WSW   1.17  17.0   WSW   15.6   18.6   16.1  1019.7  0.00   0.0   0.001   0.000   26.7    56   17.2   27.1  10.05 1.1627    117    1    100.0    5 
 1/09/14  15:00   18.1   18.1   18.1    90   16.4  14.0   WSW   1.17  18.0   WSW   15.6   18.6   16.1  1019.6  0.00   0.0   0.001   0.000   26.7    57   17.5   27.3  10.15 1.1620    117    1    100.0    5 
 1/09/14  15:05   18.1   18.1   18.1    89   16.2  16.0   WSW   1.33  19.0   WSW   15.2   18.6   15.7  1019.7  0.00   0.0   0.001   0.000   26.8    56   17.3   27.3  10.05 1.1618    117    1    100.0    5 
 1/09/14  15:10   18.1   18.1   18.1    89   16.2  15.0   WSW   1.25  18.0   WSW   15.4   18.6   15.9  1019.7  0.00   0.0   0.001   0.000   26.8    56   17.3   27.3  10.05 1.1619    117    1    100.0    5 
 1/09/14  15:15   18.0   18.1   18.0    89   16.2  15.0   WSW   1.25  18.0   WSW   15.3   18.4   15.7  1019.7  0.00   0.0   0.001   0.000   26.9    56   17.4   27.4  10.05 1.1613    117    1    100.0    5 
 1/09/14  15:20   18.1   18.1   18.0    89   16.2  14.0   WSW   1.17  17.0    SW   15.6   18.6   16.1  1019.7  0.00   0.0   0.001   0.000   26.9    56   17.4   27.4  10.05 1.1613    117    1    100.0    5 
 1/09/14  15:25   17.9   18.1   17.9    89   16.1  14.0   WSW   1.17  18.0   WSW   15.4   18.4   15.9  1019.7  0.00   0.0   0.001   0.000   27.0    56   17.5   27.6  10.05 1.1610    117    1    100.0    5 
 1/09/14  15:30   17.9   17.9   17.9    89   16.1  16.0   WSW   1.33  19.0   WSW   15.1   18.4   15.5  1019.6  0.00   0.0   0.001   0.000   27.1    55   17.2   27.5   9.85 1.1610    116    1    100.0    5 
 1/09/14  15:35   18.0   18.0   17.9    89   16.2  16.0   WSW   1.33  20.0   WSW   15.1   18.4   15.6  1019.7  0.00   0.0   0.001   0.000   27.1    55   17.3   27.6   9.85 1.1608    117    1    100.0    5 
 1/09/14  15:40   18.0   18.1   18.0    90   16.3  16.0   WSW   1.33  20.0    SW   15.1   18.5   15.6  1019.7  0.00   0.0   0.001   0.000   27.1    55   17.3   27.6   9.85 1.1608    116    1    100.0    5 
 1/09/14  15:45   17.9   18.1   17.9    91   16.5  15.0   WSW   1.25  18.0   WSW   15.2   18.4   15.7  1019.6  0.00   0.0   0.001   0.000   27.2    55   17.3   27.7   9.85 1.1605    117    1    100.0    5 
 1/09/14  15:50   17.8   17.9   17.8    91   16.3  13.0   WSW   1.08  17.0   WSW   15.5   18.3   16.0  1019.6  0.00   0.0   0.002   0.000   27.2    55   17.4   27.7   9.85 1.1601    117    1    100.0    5 
 1/09/14  15:55   17.7   17.8   17.7    92   16.4  14.0   WSW   1.17  18.0   WSW   15.1   18.2   15.6  1019.5  0.00   0.0   0.002   0.000   27.2    55   17.4   27.7   9.85 1.1600    117    1    100.0    5 
 1/09/14  16:00   17.6   17.7   17.6    92   16.3  13.0   WSW   1.08  17.0   WSW   15.3   18.1   15.7  1019.5  0.00   0.0   0.003   0.000   27.3    55   17.4   27.8   9.85 1.1597    115    1    100.0    5 
 1/09/14  16:05   17.7   17.7   17.6    92   16.4  13.0   WSW   1.08  17.0   WSW   15.3   18.2   15.8  1019.4  0.00   0.0   0.002   0.000   27.3    55   17.5   27.9   9.85 1.1594    117    1    100.0    5 
 1/09/14  16:10   17.8   17.8   17.7    93   16.6  13.0   WSW   1.08  17.0   WSW   15.4   18.3   15.9  1019.4  0.00   0.0   0.002   0.000   27.3    55   17.5   27.9   9.85 1.1594    117    1    100.0    5 
 1/09/14  16:15   17.6   17.8   17.6    93   16.5  15.0   WSW   1.25  18.0   WSW   14.9   18.1   15.4  1019.3  0.00   0.0   0.003   0.000   27.4    54   17.3   27.9   9.75 1.1593    117    1    100.0    5 
 1/09/14  16:20   17.6   17.6   17.6    94   16.6  14.0   WSW   1.17  16.0   WSW   15.1   18.1   15.6  1019.3  0.00   0.0   0.003   0.000   27.4    54   17.3   28.0   9.75 1.1590    117    1    100.0    5 
 1/09/14  16:25   17.6   17.6   17.6    94   16.6  12.0   WSW   1.00  15.0   WSW   15.5   18.1   16.0  1019.3  0.00   0.0   0.003   0.000   27.4    54   17.3   28.0   9.75 1.1591    116    1    100.0    5 
 1/09/14  16:30   17.7   17.7   17.6    94   16.7  12.0   WSW   1.00  14.0   WSW   15.6   18.2   16.1  1019.4  0.00   0.0   0.002   0.000   27.5    54   17.4   28.1   9.75 1.1588    117    1    100.0    5 
 1/09/14  16:35   17.6   17.7   17.6    93   16.5  12.0   WSW   1.00  15.0   WSW   15.6   18.1   16.1  1019.4  0.00   0.0   0.003   0.000   27.6    54   17.4   28.1   9.75 1.1586    116    1    100.0    5 
 1/09/14  16:40   17.7   17.7   17.6    93   16.5  12.0   WSW   1.00  16.0   WSW   15.6   18.2   16.1  1019.4  0.00   0.0   0.002   0.000   27.6    54   17.5   28.2   9.75 1.1583    117    1    100.0    5 
 1/09/14  16:45   17.6   17.7   17.6    93   16.5  12.0   WSW   1.00  15.0   WSW   15.6   18.1   16.1  1019.4  0.00   0.0   0.003   0.000   27.6    54   17.5   28.2   9.75 1.1583    117    1    100.0    5 
 1/09/14  16:50   17.7   17.7   17.6    93   16.5  12.0   WSW   1.00  15.0   WSW   15.6   18.2   16.1  1019.4  0.00   0.0   0.002   0.000   27.6    54   17.5   28.2   9.75 1.1583    116    1    100.0    5 
 1/09/14  16:55   17.8   17.8   17.7    92   16.5  12.0   WSW   1.00  15.0   WSW   15.8   18.3   16.3  1019.4  0.00   0.0   0.002   0.000   27.7    54   17.5   28.3   9.75 1.1580    117    1    100.0    5 
 1/09/14  17:00   17.8   17.9   17.8    91   16.3  12.0   WSW   1.00  15.0   WSW   15.8   18.3   16.3  1019.3  0.00   0.0   0.002   0.000   27.7    54   17.5   28.3   9.75 1.1579    117    1    100.0    5 
 1/09/14  17:05   17.8   17.8   17.8    91   16.3  13.0   WSW   1.08  15.0   WSW   15.5   18.3   16.0  1019.3  0.00   0.0   0.002   0.000   27.7    54   17.6   28.4   9.75 1.1576    115    1    100.0    5 
 1/09/14  17:10   17.8   17.9   17.8    91   16.3  12.0   WSW   1.00  15.0   WSW   15.8   18.3   16.3  1019.2  0.00   0.0   0.002   0.000   27.8    54   17.6   28.4   9.75 1.1572    117    1    100.0    5 
 1/09/14  17:15   17.8   17.8   17.8    91   16.3  12.0   WSW   1.00  14.0    SW   15.8   18.3   16.3  1019.2  0.00   0.0   0.002   0.000   27.8    54   17.6   28.4   9.75 1.1572    117    1    100.0    5 
 1/09/14  17:20   17.8   17.9   17.8    91   16.3  12.0   WSW   1.00  14.0   WSW   15.8   18.3   16.3  1019.3  0.00   0.0   0.002   0.000   27.8    54   17.7   28.6   9.75 1.1570    117    1    100.0    5 
 1/09/14  17:25   17.8   17.9   17.8    91   16.3  12.0   WSW   1.00  15.0   WSW   15.8   18.3   16.3  1019.2  0.00   0.0   0.002   0.000   27.8    54   17.7   28.6   9.75 1.1569    117    1    100.0    5 
 1/09/14  17:30   17.8   17.9   17.8    91   16.3  12.0   WSW   1.00  14.0   WSW   15.8   18.3   16.3  1019.2  0.00   0.0   0.002   0.000   27.9    54   17.7   28.6   9.75 1.1566    117    1    100.0    5 
 1/09/14  17:35   17.9   17.9   17.8    91   16.4  12.0   WSW   1.00  15.0   WSW   15.8   18.4   16.3  1019.2  0.00   0.0   0.002   0.000   27.9    54   17.7   28.6   9.75 1.1566    117    1    100.0    5 
 1/09/14  17:40   17.9   17.9   17.9    91   16.5  11.0   WSW   0.92  14.0   WSW   16.3   18.4   16.8  1019.2  0.00   0.0   0.001   0.000   27.9    54   17.7   28.6   9.75 1.1566    116    1    100.0    5 
 1/09/14  17:45   17.9   17.9   17.9    91   16.5  11.0   WSW   0.92  15.0   WSW   16.3   18.4   16.8  1019.1  0.00   0.0   0.001   0.000   27.9    54   17.8   28.7   9.75 1.1562    116    1    100.0    5 
 1/09/14  17:50   17.8   17.9   17.8    91   16.3  13.0   WSW   1.08  16.0   WSW   15.5   18.3   16.0  1019.1  0.00   0.0   0.002   0.000   27.9    54   17.8   28.7   9.75 1.1562    117    1    100.0    5 
 1/09/14  17:55   17.9   17.9   17.8    91   16.4  13.0   WSW   1.08  15.0   WSW   15.6   18.4   16.1  1019.1  0.00   0.0   0.002   0.000   27.9    53   17.5   28.6   9.60 1.1567    116    1    100.0    5 
 1/09/14  18:00   17.8   17.9   17.8    91   16.3  13.0   WSW   1.08  16.0   WSW   15.5   18.3   16.0  1019.2  0.00   0.0   0.002   0.000   28.0    53   17.5   28.7   9.60 1.1564    117    1    100.0    5 
 1/09/14  18:05   17.8   17.8   17.8    91   16.3  13.0   WSW   1.08  16.0   WSW   15.4   18.2   15.9  1019.2  0.00   0.0   0.002   0.000   28.0    53   17.5   28.7   9.60 1.1564    117    1    100.0    5 
 1/09/14  18:10   17.8   17.8   17.7    92   16.5  12.0   WSW   1.00  15.0   WSW   15.7   18.3   16.2  1019.1  0.00   0.0   0.002   0.000   28.0    53   17.5   28.7   9.60 1.1564    117    1    100.0    5 
 1/09/14  18:15   17.8   17.8   17.7    91   16.3  13.0   WSW   1.08  16.0   WSW   15.4   18.2   15.9  1019.1  0.00   0.0   0.002   0.000   28.1    53   17.6   28.8   9.60 1.1561    117    1    100.0    5 
 1/09/14  18:20   17.8   17.8   17.7    92   16.5  13.0   WSW   1.08  16.0   WSW   15.4   18.3   15.9  1019.1  0.00   0.0   0.002   0.000   28.1    53   17.6   28.9   9.60 1.1558    116    1    100.0    5 
 1/09/14  18:25   17.8   17.8   17.8    92   16.5  12.0   WSW   1.00  16.0   WSW   15.7   18.3   16.2  1019.1  0.00   0.0   0.002   0.000   28.1    53   17.6   28.8   9.60 1.1561    118    1    100.0    5 
 1/09/14  18:30   17.8   17.8   17.8    92   16.5  12.0   WSW   1.00  16.0   WSW   15.7   18.3   16.2  1019.1  0.00   0.0   0.002   0.000   28.1    53   17.6   28.9   9.60 1.1558    115    1    100.0    5 
 1/09/14  18:35   17.8   17.8   17.8    92   16.5  13.0   WSW   1.08  15.0   WSW   15.4   18.3   15.9  1019.1  0.00   0.0   0.002   0.000   28.1    53   17.6   28.8   9.60 1.1561    116    1    100.0    5 
 1/09/14  18:40   17.8   17.8   17.7    92   16.5  13.0   WSW   1.08  17.0   WSW   15.4   18.3   15.9  1019.1  0.00   0.0   0.002   0.000   28.1    52   17.3   28.7   9.40 1.1565    117    1    100.0    5 
 1/09/14  18:45   17.7   17.8   17.7    92   16.4  14.0   WSW   1.17  18.0   WSW   15.2   18.2   15.7  1019.0  0.00   0.0   0.002   0.000   28.1    52   17.3   28.7   9.40 1.1564    117    1    100.0    5 
 1/09/14  18:50   17.7   17.7   17.7    92   16.4  14.0   WSW   1.17  17.0   WSW   15.1   18.2   15.6  1019.0  0.00   0.0   0.002   0.000   28.1    52   17.3   28.7   9.40 1.1564    117    1    100.0    5 
 1/09/14  18:55   17.6   17.7   17.6    92   16.2  14.0   WSW   1.17  17.0   WSW   15.0   18.0   15.4  1019.0  0.00   0.0   0.003   0.000   28.0    52   17.2   28.6   9.40 1.1567    117    1    100.0    5 
 1/09/14  19:00   17.5   17.6   17.5    92   16.2  13.0   WSW   1.08  19.0   WSW   15.2   17.9   15.6  1019.0  0.00   0.0   0.003   0.000   28.0    52   17.2   28.6   9.40 1.1566    117    1    100.0    5 
 1/09/14  19:05   17.4   17.5   17.4    92   16.1  12.0   WSW   1.00  18.0   WSW   15.3   17.8   15.7  1019.0  0.00   0.0   0.003   0.000   28.0    52   17.2   28.6   9.40 1.1567    117    1    100.0    5 
 1/09/14  19:10   17.3   17.4   17.3    93   16.2  11.0   WSW   0.92  16.0   WSW   15.6   17.8   16.0  1019.0  0.00   0.0   0.003   0.000   28.0    52   17.2   28.6   9.40 1.1567    117    1    100.0    5 
 1/09/14  19:15   17.3   17.3   17.3    93   16.2  10.0     W   0.83  14.0     W   15.9   17.8   16.4  1019.1  0.00   0.0   0.003   0.000   28.0    52   17.2   28.6   9.40 1.1568    117    1    100.0    5 
 1/09/14  19:20   17.3   17.3   17.3    93   16.2   9.0     W   0.75  12.0   WSW   16.3   17.8   16.8  1019.1  0.00   0.0   0.003   0.000   27.9    52   17.2   28.6   9.40 1.1571    115    1    100.0    5 
 1/09/14  19:25   17.4   17.4   17.3    93   16.2   8.0     W   0.67  12.0   WSW   16.9   17.8   17.3  1019.1  0.00   0.0   0.003   0.000   27.9    52   17.2   28.6   9.40 1.1571    117    1    100.0    5 
 1/09/14  19:30   17.4   17.4   17.3    94   16.4   8.0     W   0.67  13.0     W   16.9   17.8   17.3  1019.1  0.00   0.0   0.003   0.000   27.9    52   17.2   28.6   9.40 1.1571    116    1    100.0    5 
 1/09/14  19:35   17.4   17.4   17.4    94   16.4   9.0   WSW   0.75  14.0   WSW   16.4   17.8   16.9  1019.1  0.00   0.0   0.003   0.000   27.9    52   17.2   28.6   9.40 1.1571    117    1    100.0    5 
 1/09/14  19:40   17.3   17.4   17.3    94   16.4  10.0   WSW   0.83  14.0   WSW   15.9   17.8   16.4  1019.2  0.00   0.0   0.003   0.000   27.9    52   17.1   28.4   9.41 1.1575    116    1    100.0    5 
 1/09/14  19:45   17.3   17.3   17.3    94   16.3   8.0     W   0.67  12.0     W   16.8   17.7   17.2  1019.2  0.00   0.0   0.004   0.000   27.9    52   17.1   28.4   9.41 1.1575    115    1    100.0    5 
 1/09/14  19:50   17.2   17.3   17.2    94   16.2   7.0     W   0.58  10.0     W   17.2   17.7   17.6  1019.2  0.00   0.0   0.004   0.000   27.9    52   17.1   28.4   9.41 1.1575    117    1    100.0    5 
 1/09/14  19:55   17.2   17.3   17.2    94   16.2   6.0     W   0.50  11.0   WSW   17.2   17.7   17.7  1019.2  0.00   0.0   0.004   0.000   27.8    52   17.1   28.4   9.41 1.1578    117    1    100.0    5 
 1/09/14  20:00   17.2   17.2   17.2    94   16.2   7.0     W   0.58  11.0     W   17.2   17.7   17.6  1019.2  0.00   0.0   0.004   0.000   27.8    52   17.1   28.4   9.41 1.1578    116    1    100.0    5 
 1/09/14  20:05   17.2   17.2   17.2    94   16.2   7.0     W   0.58  10.0     W   17.1   17.6   17.6  1019.3  0.00   0.0   0.004   0.000   27.8    52   17.1   28.4   9.41 1.1579    117    1    100.0    5 
 1/09/14  20:10   17.2   17.2   17.2    94   16.2   6.0     W   0.50  10.0     W   17.2   17.6   17.6  1019.4  0.00   0.0   0.004   0.000   27.8    52   17.1   28.4   9.41 1.1580    117    1    100.0    5 
 1/09/14  20:15   17.2   17.2   17.2    94   16.2   5.0     W   0.42   9.0     W   17.2   17.6   17.6  1019.4  0.00   0.0   0.004   0.000   27.8    52   17.1   28.4   9.41 1.1580    117    1    100.0    5 
 1/09/14  20:20   17.1   17.2   17.1    94   16.1   5.0     W   0.42   8.0     W   17.1   17.6   17.6  1019.4  0.00   0.0   0.004   0.000   27.8    52   17.1   28.4   9.41 1.1580    117    1    100.0    5 
 1/09/14  20:25   17.1   17.2   17.1    95   16.3   5.0     W   0.42   8.0   WSW   17.1   17.6   17.6  1019.5  0.00   0.0   0.004   0.000   27.8    52   17.0   28.3   9.41 1.1584    116    1    100.0    5 
 1/09/14  20:30   17.1   17.1   17.1    95   16.3   4.0     W   0.33   7.0     W   17.1   17.6   17.6  1019.5  0.00   0.0   0.004   0.000   27.8    52   17.0   28.3   9.41 1.1585    118    1    100.0    5 
 1/09/14  20:35   17.1   17.1   17.1    95   16.3   5.0     W   0.42   8.0     W   17.1   17.6   17.6  1019.5  0.00   0.0   0.004   0.000   27.7    52   17.0   28.2   9.41 1.1587    117    1    100.0    5 
 1/09/14  20:40   17.1   17.1   17.1    95   16.3   5.0     W   0.42   9.0     W   17.1   17.6   17.6  1019.6  0.00   0.0   0.004   0.000   27.7    52   17.0   28.2   9.41 1.1588    117    1    100.0    5 
 1/09/14  20:45   17.1   17.2   17.1    95   16.3   4.0     W   0.33   6.0     W   17.1   17.6   17.6  1019.6  0.00   0.0   0.004   0.000   27.7    52   17.0   28.2   9.41 1.1588    117    1    100.0    5 
 1/09/14  20:50   17.1   17.2   17.1    95   16.3   5.0     W   0.42   8.0     W   17.1   17.6   17.6  1019.5  0.00   0.0   0.004   0.000   27.7    52   17.0   28.2   9.41 1.1587    116    1    100.0    5 
 1/09/14  20:55   17.1   17.1   17.1    95   16.3   5.0     W   0.42   8.0   WSW   17.1   17.6   17.6  1019.6  0.00   0.0   0.004   0.000   27.7    52   17.0   28.2   9.41 1.1588    117    1    100.0    5 
 1/09/14  21:00   17.1   17.1   17.1    95   16.3   4.0     W   0.33   7.0     W   17.1   17.6   17.6  1019.6  0.00   0.0   0.004   0.000   27.7    52   16.9   28.1   9.41 1.1591    116    1    100.0    5 
 1/09/14  21:05   17.1   17.1   17.1    95   16.3   4.0     W   0.33   8.0     W   17.1   17.6   17.6  1019.7  0.00   0.0   0.004   0.000   27.7    52   16.9   28.1   9.41 1.1592    117    1    100.0    5 
 1/09/14  21:10   17.1   17.1   17.1    95   16.3   4.0     W   0.33   6.0   WSW   17.1   17.6   17.6  1019.7  0.00   0.0   0.004   0.000   27.7    52   16.9   28.1   9.41 1.1592    117    1    100.0    5 
 1/09/14  21:15   17.1   17.1   17.1    95   16.2   4.0     W   0.33   8.0     W   17.1   17.5   17.5  1019.7  0.00   0.0   0.004   0.000   27.6    52   16.9   28.1   9.42 1.1595    115    1    100.0    5 
 1/09/14  21:20   17.1   17.1   17.1    95   16.2   4.0     W   0.33   7.0   WSW   17.1   17.5   17.5  1019.7  0.00   0.0   0.004   0.000   27.6    52   16.9   28.1   9.42 1.1595    116    1    100.0    5 
 1/09/14  21:25   17.1   17.1   17.1    95   16.2   4.0     W   0.33   7.0     W   17.1   17.5   17.5  1019.8  0.00   0.0   0.004   0.000   27.6    52   16.9   28.1   9.42 1.1596    116    1    100.0    5 
 1/09/14  21:30   17.1   17.1   17.1    95   16.2   3.0     W   0.25   6.0     W   17.1   17.5   17.5  1019.8  0.00   0.0   0.004   0.000   27.6    52   16.9   28.1   9.42 1.1596    116    1    100.0    5 
 1/09/14  21:35   17.1   17.1   17.1    95   16.2   3.0     W   0.25   5.0     W   17.1   17.5   17.5  1019.8  0.00   0.0   0.004   0.000   27.6    52   16.9   28.1   9.42 1.1596    118    1    100.0    5 
 1/09/14  21:40   17.1   17.1   17.1    95   16.2   3.0     W   0.25   5.0     W   17.1   17.5   17.5  1019.8  0.00   0.0   0.004   0.000   27.6    52   16.8   27.9   9.42 1.1599    117    1    100.0    5 
 1/09/14  21:45   17.1   17.1   17.1    95   16.2   5.0     W   0.42   7.0     W   17.1   17.5   17.5  1019.8  0.00   0.0   0.004   0.000   27.6    52   16.8   27.9   9.42 1.1599    117    1    100.0    5 
 1/09/14  21:50   17.1   17.1   17.1    95   16.3   4.0     W   0.33   7.0     W   17.1   17.6   17.6  1019.8  0.00   0.0   0.004   0.000   27.6    52   16.8   27.9   9.42 1.1599    117    1    100.0    5 
 1/09/14  21:55   17.1   17.1   17.1    95   16.3   3.0     W   0.25   6.0     W   17.1   17.6   17.6  1019.8  0.00   0.0   0.004   0.000   27.5    52   16.8   27.9   9.42 1.1602    117    1    100.0    5 
 1/09/14  22:00   17.1   17.1   17.1    95   16.3   3.0     W   0.25   6.0     W   17.1   17.6   17.6  1019.8  0.00   0.0   0.004   0.000   27.5    52   16.8   27.9   9.42 1.1602    117    1    100.0    5 
 1/09/14  22:05   17.1   17.1   17.1    95   16.3   2.0     W   0.17   5.0     W   17.1   17.6   17.6  1019.9  0.00   0.0   0.004   0.000   27.5    52   16.8   27.9   9.42 1.1603    117    1    100.0    5 
 1/09/14  22:10   17.1   17.1   17.1    95   16.3   2.0     W   0.17   5.0     W   17.1   17.6   17.6  1019.9  0.00   0.0   0.004   0.000   27.5    52   16.8   27.9   9.42 1.1603    117    1    100.0    5 
 1/09/14  22:15   17.1   17.1   17.1    95   16.3   2.0     W   0.17   5.0     W   17.1   17.6   17.6  1019.9  0.00   0.0   0.004   0.000   27.5    52   16.8   27.9   9.42 1.1603    117    1    100.0    5 
 1/09/14  22:20   17.1   17.1   17.1    95   16.3   1.0     W   0.08   3.0     W   17.1   17.6   17.6  1019.9  0.00   0.0   0.004   0.000   27.5    52   16.8   27.9   9.42 1.1603    117    1    100.0    5 
 1/09/14  22:25   17.1   17.1   17.1    95   16.3   1.0     W   0.08   3.0     W   17.1   17.6   17.6  1019.9  0.00   0.0   0.004   0.000   27.5    52   16.8   27.9   9.42 1.1603    117    1    100.0    5 
 1/09/14  22:30   17.2   17.2   17.1    95   16.4   2.0     W   0.17   4.0     W   17.2   17.6   17.6  1019.9  0.00   0.0   0.004   0.000   27.5    52   16.8   27.9   9.42 1.1603    115    1    100.0    5 
 1/09/14  22:35   17.2   17.2   17.2    95   16.4   1.0     W   0.08   4.0     W   17.2   17.6   17.6  1019.9  0.00   0.0   0.004   0.000   27.4    52   16.7   27.8   9.42 1.1606    118    1    100.0    5 
 1/09/14  22:40   17.2   17.2   17.2    95   16.4   1.0     W   0.08   3.0     W   17.2   17.6   17.6  1019.9  0.00   0.0   0.004   0.000   27.4    52   16.7   27.8   9.42 1.1606    117    1    100.0    5 
 1/09/14  22:45   17.2   17.2   17.2    95   16.4   1.0   WNW   0.08   5.0   WNW   17.2   17.6   17.6  1019.8  0.00   0.0   0.004   0.000   27.4    52   16.7   27.8   9.42 1.1605    116    1    100.0    5 
 1/09/14  22:50   17.2   17.2   17.2    95   16.4   1.0   WNW   0.08   4.0   WNW   17.2   17.6   17.6  1019.9  0.00   0.0   0.004   0.000   27.4    52   16.7   27.8   9.42 1.1606    116    1    100.0    5 
 1/09/14  22:55   17.2   17.2   17.2    95   16.4   1.0   WNW   0.08   3.0   WNW   17.2   17.6   17.6  1019.8  0.00   0.0   0.004   0.000   27.4    52   16.7   27.8   9.42 1.1605    117    1    100.0    5 
 1/09/14  23:00   17.2   17.2   17.2    95   16.4   2.0   WNW   0.17   4.0   WNW   17.2   17.6   17.6  1019.8  0.00   0.0   0.004   0.000   27.4    52   16.7   27.8   9.42 1.1604    114    1    100.0    5 
 1/09/14  23:05   17.2   17.2   17.1    95   16.4   2.0   WNW   0.17   4.0   WNW   17.2   17.6   17.6  1019.8  0.00   0.0   0.004   0.000   27.4    52   16.7   27.8   9.42 1.1604    115    1    100.0    5 
 1/09/14  23:10   17.1   17.2   17.1    95   16.3   3.0   WNW   0.25   5.0   WNW   17.1   17.6   17.6  1019.7  0.00   0.0   0.004   0.000   27.4    52   16.7   27.8   9.42 1.1604    117    1    100.0    5 
 1/09/14  23:15   17.1   17.2   17.1    95   16.3   2.0   WNW   0.17   5.0   WNW   17.1   17.6   17.6  1019.7  0.00   0.0   0.004   0.000   27.4    52   16.7   27.8   9.42 1.1604    115    1    100.0    5 
 1/09/14  23:20   17.1   17.1   17.1    95   16.3   2.0   NNW   0.17   4.0    NW   17.1   17.6   17.6  1019.8  0.00   0.0   0.004   0.000   27.4    52   16.7   27.8   9.42 1.1605    117    1    100.0    5 
 1/09/14  23:25   17.1   17.1   17.1    95   16.3   1.0   NNW   0.08   3.0   NNW   17.1   17.6   17.6  1019.8  0.00   0.0   0.004   0.000   27.4    52   16.7   27.8   9.42 1.1604    117    1    100.0    5 
 1/09/14  23:30   17.1   17.1   17.1    95   16.3   1.0   NNW   0.08   3.0   NNW   17.1   17.6   17.6  1019.8  0.00   0.0   0.004   0.000   27.4    52   16.7   27.8   9.42 1.1605    115    1    100.0    5 
 1/09/14  23:35   17.1   17.1   17.1    95   16.2   0.0   ---   0.00   0.0   ---   17.1   17.5   17.5  1019.8  0.00   0.0   0.004   0.000   27.4    52   16.7   27.7   9.42 1.1608    117    1    100.0    5 
 1/09/14  23:40   17.1   17.1   17.1    95   16.2   0.0   NNW   0.00   1.0   NNW   17.1   17.5   17.5  1019.8  0.00   0.0   0.004   0.000   27.4    52   16.7   27.8   9.42 1.1605    118    1    100.0    5 
 1/09/14  23:45   17.1   17.1   17.1    95   16.3   1.0   NNW   0.08   3.0   NNW   17.1   17.6   17.6  1019.8  0.00   0.0   0.004   0.000   27.4    52   16.7   27.8   9.42 1.1605    117    1    100.0    5 
 1/09/14  23:50   17.1   17.1   17.1    95   16.3   1.0   NNW   0.08   4.0   NNW   17.1   17.6   17.6  1019.8  0.00   0.0   0.004   0.000   27.4    52   16.7   27.8   9.42 1.1605    117    1    100.0    5 
 1/09/14  23:55   17.1   17.1   17.1    95   16.3   1.0    NW   0.08   3.0    NW   17.1   17.6   17.6  1019.9  0.00   0.0   0.004   0.000   27.4    52   16.7   27.8   9.42 1.1606    117    1    100.0    5 
 2/09/14  00:00   17.1   17.1   17.1    95   16.3   2.0    NW   0.17   3.0    NW   17.1   17.6   17.6  1020.1  0.00   0.0   0.004   0.000   27.4    52   16.7   27.8   9.42 1.1608    117    1    100.0    5 
 2/09/14   0:05   17.1   17.1   17.1    95   16.3   1.0    NW   0.08   4.0    NW   17.1   17.6   17.6  1020.0  0.00   0.0   0.004   0.000   27.4    52   16.7   27.8   9.42 1.1607    114    1    100.0    5 
 2/09/14   0:10   17.1   17.1   17.1    95   16.3   2.0   NNW   0.17   3.0    NW   17.1   17.6   17.6  1020.0  0.00   0.0   0.004   0.000   27.5    52   16.8   27.9   9.42 1.1604    117    1    100.0    5 
 2/09/14   0:15   17.1   17.1   17.1    95   16.2   2.0     N   0.17   5.0     N   17.1   17.5   17.5  1020.1  0.00   0.0   0.004   0.000   27.5    52   16.8   27.9   9.42 1.1605    117    1    100.0    5 
 2/09/14   0:20   17.0   17.1   17.0    95   16.2   4.0   NNE   0.33   7.0   NNE   17.0   17.4   17.4  1020.1  0.00   0.0   0.005   0.000   27.5    52   16.8   27.9   9.42 1.1605    117    1    100.0    5 
 2/09/14   0:25   16.9   17.0   16.9    95   16.1   5.0   NNE   0.42   8.0    NE   16.9   17.4   17.4  1020.1  0.00   0.0   0.005   0.000   27.6    52   16.8   27.9   9.42 1.1602    117    1    100.0    5 
 2/09/14   0:30   16.9   16.9   16.9    95   16.1   6.0   NNE   0.50   9.0   NNE   16.9   17.3   17.3  1020.1  0.00   0.0   0.005   0.000   27.6    52   16.8   27.9   9.42 1.1602    117    1    100.0    5 
 2/09/14   0:35   16.8   16.9   16.8    95   16.0   6.0   NNE   0.50   9.0   NNE   16.8   17.2   17.2  1020.1  0.00   0.0   0.005   0.000   27.6    52   16.9   28.1   9.42 1.1600    116    1    100.0    5 
 2/09/14   0:40   16.8   16.8   16.8    95   16.0   7.0   NNE   0.58  12.0    NE   16.6   17.2   17.0  1020.1  0.00   0.0   0.005   0.000   27.6    52   16.9   28.1   9.42 1.1599    115    1    100.0    5 
 2/09/14   0:45   16.7   16.7   16.7    95   15.9   6.0    NE   0.50  11.0    NE   16.7   17.1   17.1  1020.2  0.00   0.0   0.006   0.000   27.7    52   16.9   28.1   9.41 1.1597    117    1    100.0    5 
 2/09/14   0:50   16.6   16.7   16.6    95   15.8   5.0    NE   0.42  10.0    NE   16.6   17.0   17.0  1020.1  0.00   0.0   0.006   0.000   27.7    52   17.0   28.2   9.41 1.1594    117    1    100.0    5 
 2/09/14   0:55   16.6   16.6   16.6    95   15.8   4.0    NE   0.33   9.0   ENE   16.6   16.9   16.9  1020.1  0.00   0.0   0.006   0.000   27.7    52   17.0   28.2   9.41 1.1594    117    1    100.0    5 
 2/09/14   1:00   16.5   16.6   16.5    95   15.7   4.0   NNE   0.33   8.0   NNE   16.5   16.8   16.8  1020.2  0.00   0.0   0.006   0.000   27.7    52   17.0   28.2   9.41 1.1595    115    1    100.0    5 
 2/09/14   1:05   16.4   16.5   16.4    95   15.6   5.0   NNE   0.42   9.0     N   16.4   16.7   16.7  1020.2  0.00   0.0   0.007   0.000   27.8    52   17.0   28.3   9.41 1.1592    117    1    100.0    5 
 2/09/14   1:10   16.3   16.4   16.3    95   15.5   4.0   NNE   0.33   8.0    NE   16.3   16.7   16.7  1020.2  0.00   0.0   0.007   0.000   27.8    52   17.0   28.3   9.41 1.1592    117    1    100.0    5 
 2/09/14   1:15   16.2   16.3   16.2    95   15.4   5.0   NNE   0.42   7.0   NNE   16.2   16.5   16.5  1020.2  0.00   0.0   0.007   0.000   27.8    52   17.1   28.4   9.41 1.1589    117    1    100.0    5 
 2/09/14   1:20   16.2   16.3   16.2    95   15.4   5.0   NNE   0.42   8.0   NNE   16.2   16.4   16.4  1020.2  0.00   0.0   0.008   0.000   27.8    52   17.0   28.3   9.41 1.1592    116    1    100.0    5 
 2/09/14   1:25   16.1   16.2   16.1    95   15.3   6.0   NNE   0.50  10.0    NE   16.0   16.4   16.3  1020.2  0.00   0.0   0.008   0.000   27.8    52   17.0   28.3   9.41 1.1592    117    1    100.0    5 
 2/09/14   1:30   16.0   16.1   16.0    95   15.2   5.0   NNE   0.42   9.0   NNE   16.0   16.3   16.3  1020.2  0.00   0.0   0.008   0.000   27.8    51   16.7   28.2   9.31 1.1596    117    1    100.0    5 
 2/09/14   1:35   15.9   16.0   15.9    95   15.1   6.0   NNE   0.50   9.0   NNE   15.7   16.2   16.0  1020.1  0.00   0.0   0.008   0.000   27.8    51   16.7   28.2   9.31 1.1595    116    1    100.0    5 
 2/09/14   1:40   15.8   15.8   15.8    95   15.0   6.0   NNE   0.50   9.0   NNE   15.6   16.0   15.8  1020.1  0.00   0.0   0.009   0.000   27.8    51   16.7   28.2   9.31 1.1595    117    1    100.0    5 
 2/09/14   1:45   15.7   15.8   15.7    95   14.9   4.0   NNE   0.33   8.0   NNE   15.7   15.9   15.9  1020.1  0.00   0.0   0.009   0.000   27.8    51   16.7   28.2   9.31 1.1595    117    1    100.0    5 
 2/09/14   1:50   15.6   15.7   15.6    95   14.8   5.0   NNE   0.42   7.0   NNE   15.6   15.8   15.8  1020.2  0.00   0.0   0.009   0.000   27.7    51   16.7   28.1   9.31 1.1599    116    1    100.0    5 
 2/09/14   1:55   15.6   15.6   15.6    95   14.8   4.0   NNE   0.33   6.0   NNE   15.6   15.8   15.8  1020.2  0.00   0.0   0.010   0.000   27.7    51   16.7   28.1   9.31 1.1600    116    1    100.0    5 
 2/09/14   2:00   15.6   15.6   15.6    95   14.8   3.0     N   0.25   4.0   NNE   15.6   15.8   15.8  1020.2  0.00   0.0   0.010   0.000   27.7    51   16.7   28.1   9.31 1.1599    117    1    100.0    5 
 2/09/14   2:05   15.5   15.6   15.5    95   14.7   3.0     N   0.25   6.0     N   15.5   15.7   15.7  1020.2  0.00   0.0   0.010   0.000   27.7    51   16.7   28.1   9.31 1.1600    116    1    100.0    5 
 2/09/14   2:10   15.4   15.5   15.4    95   14.6   4.0     N   0.33   6.0   NNE   15.4   15.7   15.7  1020.2  0.00   0.0   0.010   0.000   27.7    51   16.6   28.1   9.31 1.1602    118    1    100.0    5 
 2/09/14   2:15   15.4   15.4   15.4    95   14.6   3.0   NNE   0.25   5.0   NNE   15.4   15.6   15.6  1020.3  0.00   0.0   0.010   0.000   27.7    51   16.6   28.1   9.31 1.1603    115    1    100.0    5 
 2/09/14   2:20   15.3   15.4   15.3    95   14.5   4.0   NNE   0.33   6.0     N   15.3   15.6   15.6  1020.2  0.00   0.0   0.010   0.000   27.7    51   16.6   28.1   9.31 1.1602    117    1    100.0    5 
 2/09/14   2:25   15.3   15.3   15.3    95   14.5   4.0   NNE   0.33   6.0   NNE   15.3   15.6   15.6  1020.2  0.00   0.0   0.010   0.000   27.6    51   16.6   27.9   9.32 1.1605    117    1    100.0    5 
 2/09/14   2:30   15.3   15.3   15.3    95   14.5   3.0   NNE   0.25   5.0   NNE   15.3   15.5   15.5  1020.2  0.00   0.0   0.011   0.000   27.6    51   16.6   27.9   9.32 1.1604    117    1    100.0    5 
 2/09/14   2:35   15.2   15.3   15.2    95   14.4   3.0     N   0.25   5.0     N   15.2   15.4   15.4  1020.2  0.00   0.0   0.011   0.000   27.6    51   16.6   27.9   9.32 1.1604    117    1    100.0    5 
 2/09/14   2:40   15.1   15.2   15.1    95   14.3   4.0     N   0.33   6.0     N   15.1   15.3   15.3  1020.1  0.00   0.0   0.011   0.000   27.6    51   16.5   27.9   9.32 1.1607    117    1    100.0    5 
 2/09/14   2:45   15.0   15.1   15.0    95   14.2   5.0     N   0.42   7.0     N   14.9   15.2   15.1  1020.1  0.00   0.0   0.012   0.000   27.6    51   16.5   27.9   9.32 1.1607    117    1    100.0    5 
 2/09/14   2:50   14.9   15.0   14.9    95   14.2   6.0     N   0.50  11.0   NNW   14.6   15.2   14.8  1020.1  0.00   0.0   0.012   0.000   27.6    51   16.5   27.9   9.32 1.1606    116    1    100.0    5 
 2/09/14   2:55   14.9   14.9   14.8    95   14.1   6.0     N   0.50  10.0     N   14.6   15.1   14.8  1020.1  0.00   0.0   0.012   0.000   27.5    51   16.5   27.8   9.32 1.1609    117    1    100.0    5 
 2/09/14   3:00   14.8   14.8   14.8    95   14.0   6.0     N   0.50   9.0     N   14.4   15.1   14.7  1020.1  0.00   0.0   0.012   0.000   27.5    51   16.5   27.8   9.32 1.1609    116    1    100.0    5 
 2/09/14   3:05   14.8   14.8   14.8    96   14.2   6.0     N   0.50   9.0     N   14.4   15.1   14.7  1020.1  0.00   0.0   0.012   0.000   27.4    51   16.4   27.7   9.32 1.1613    115    1    100.0    5 
 2/09/14   3:10   14.8   14.8   14.8    96   14.2   6.0     N   0.50  10.0     N   14.4   15.1   14.7  1020.1  0.00   0.0   0.012   0.000   27.4    51   16.4   27.7   9.32 1.1612    117    1    100.0    5 
 2/09/14   3:15   14.8   14.8   14.8    96   14.2   6.0     N   0.50  10.0     N   14.4   15.1   14.7  1020.1  0.00   0.0   0.012   0.000   27.4    51   16.4   27.7   9.32 1.1612    117    1    100.0    5 
 2/09/14   3:20   14.8   14.8   14.8    96   14.2   6.0     N   0.50  10.0     N   14.4   15.1   14.7  1020.1  0.00   0.0   0.012   0.000   27.4    51   16.4   27.7   9.32 1.1615    117    1    100.0    5 
 2/09/14   3:25   14.8   14.8   14.8    96   14.2   6.0     N   0.50  10.0     N   14.4   15.1   14.7  1020.1  0.00   0.0   0.012   0.000   27.4    51   16.4   27.7   9.32 1.1615    117    1    100.0    5 
 2/09/14   3:30   14.8   14.8   14.8    96   14.2   6.0     N   0.50  10.0   NNE   14.4   15.1   14.7  1020.1  0.00   0.0   0.012   0.000   27.4    51   16.4   27.7   9.32 1.1615    117    1    100.0    5 
 2/09/14   3:35   14.8   14.8   14.8    96   14.2   5.0     N   0.42   9.0   NNE   14.7   15.1   14.9  1020.1  0.00   0.0   0.012   0.000   27.4    51   16.4   27.7   9.32 1.1615    116    1    100.0    5 
 2/09/14   3:40   14.8   14.8   14.8    96   14.2   5.0     N   0.42   8.0     N   14.7   15.1   14.9  1020.1  0.00   0.0   0.012   0.000   27.3    51   16.3   27.6   9.33 1.1618    117    1    100.0    5 
 2/09/14   3:45   14.9   14.9   14.8    96   14.3   4.0     N   0.33   6.0     N   14.9   15.1   15.1  1020.2  0.00   0.0   0.012   0.000   27.3    51   16.3   27.6   9.33 1.1619    116    1    100.0    5 
 2/09/14   3:50   14.9   14.9   14.9    96   14.3   4.0     N   0.33   8.0     N   14.9   15.1   15.1  1020.2  0.00   0.0   0.012   0.000   27.3    51   16.3   27.6   9.33 1.1619    116    1    100.0    5 
 2/09/14   3:55   14.9   14.9   14.9    96   14.3   5.0     N   0.42   9.0     N   14.8   15.2   15.1  1020.2  0.00   0.0   0.012   0.000   27.3    51   16.3   27.5   9.33 1.1622    117    1    100.0    5 
 2/09/14   4:00   14.9   14.9   14.9    96   14.3   5.0     N   0.42   9.0   NNW   14.8   15.1   15.0  1020.1  0.00   0.0   0.012   0.000   27.3    51   16.3   27.5   9.33 1.1621    117    1    100.0    5 
 2/09/14   4:05   14.8   14.9   14.8    96   14.2   5.0     N   0.42   9.0     N   14.7   15.1   14.9  1020.1  0.00   0.0   0.012   0.000   27.2    51   16.2   27.4   9.33 1.1623    117    1    100.0    5 
 2/09/14   4:10   14.8   14.8   14.8    96   14.2   5.0     N   0.42   8.0   NNW   14.7   15.1   14.9  1020.1  0.00   0.0   0.012   0.000   27.2    51   16.2   27.4   9.33 1.1623    116    1    100.0    5 
 2/09/14   4:15   14.8   14.8   14.8    96   14.1   4.0     N   0.33   8.0   NNE   14.8   15.0   15.0  1020.1  0.00   0.0   0.012   0.000   27.2    51   16.2   27.4   9.33 1.1624    118    1    100.0    5 
 2/09/14   4:20   14.7   14.8   14.7    96   14.1   5.0     N   0.42   7.0     N   14.6   14.9   14.8  1020.2  0.00   0.0   0.013   0.000   27.2    51   16.2   27.4   9.33 1.1624    117    1    100.0    5 
 2/09/14   4:25   14.7   14.7   14.7    95   13.9   4.0     N   0.33   8.0   NNE   14.7   14.8   14.8  1020.1  0.00   0.0   0.013   0.000   27.2    51   16.2   27.3   9.33 1.1627    117    1    100.0    5 
 2/09/14   4:30   14.6   14.7   14.6    95   13.8   6.0     N   0.50  10.0   NNW   14.1   14.7   14.3  1020.1  0.00   0.0   0.013   0.000   27.2    51   16.2   27.3   9.33 1.1627    117    1    100.0    5 
 2/09/14   4:35   14.4   14.6   14.4    96   13.8   6.0   NNE   0.50  10.0   NNE   14.0   14.6   14.2  1020.1  0.00   0.0   0.014   0.000   27.2    51   16.2   27.3   9.33 1.1627    117    1    100.0    5 
 2/09/14   4:40   14.3   14.4   14.3    96   13.7   6.0   NNE   0.50   9.0   NNE   13.9   14.5   14.1  1020.2  0.00   0.0   0.014   0.000   27.2    51   16.2   27.3   9.33 1.1627    117    1    100.0    5 
 2/09/14   4:45   14.3   14.3   14.3    95   13.5   5.0   NNE   0.42   8.0   NNE   14.0   14.4   14.2  1020.1  0.00   0.0   0.014   0.000   27.2    51   16.2   27.3   9.33 1.1627    117    1    100.0    5 
 2/09/14   4:50   14.2   14.3   14.2    95   13.4   5.0     N   0.42   8.0   NNE   13.9   14.4   14.1  1020.2  0.00   0.0   0.014   0.000   27.1    51   16.1   27.3   9.33 1.1630    116    1    100.0    5 
 2/09/14   4:55   14.2   14.2   14.2    95   13.4   4.0     N   0.33   6.0     N   14.2   14.3   14.3  1020.2  0.00   0.0   0.014   0.000   27.1    51   16.1   27.3   9.33 1.1630    117    1    100.0    5 
 2/09/14   5:00   14.1   14.2   14.1    96   13.5   5.0   NNE   0.42  11.0   NNE   13.8   14.3   14.0  1020.1  0.00   0.0   0.015   0.000   27.1    50   15.8   27.2   9.13 1.1634    117    1    100.0    5 
 2/09/14   5:05   14.1   14.1   14.1    96   13.4   7.0   NNE   0.58  10.0     N   13.3   14.2   13.5  1020.2  0.00   0.0   0.015   0.000   27.1    50   15.7   27.2   9.14 1.1637    116    1    100.0    5 
 2/09/14   5:10   14.0   14.1   14.0    96   13.4   7.0   NNE   0.58  11.0   NNE   13.2   14.2   13.4  1020.1  0.00   0.0   0.015   0.000   27.1    50   15.7   27.2   9.14 1.1637    117    1    100.0    5 
 2/09/14   5:15   13.9   14.0   13.9    96   13.3   7.0   NNE   0.58  11.0   NNE   13.2   14.1   13.3  1020.1  0.00   0.0   0.015   0.000   27.1    50   15.7   27.2   9.14 1.1637    115    1    100.0    5 
 2/09/14   5:20   13.9   13.9   13.9    95   13.1   7.0   NNE   0.58  11.0   NNE   13.1   14.0   13.2  1020.1  0.00   0.0   0.015   0.000   27.0    50   15.7   27.1   9.14 1.1639    117    1    100.0    5 
 2/09/14   5:25   13.8   13.9   13.8    95   13.0   8.0   NNE   0.67  12.0   NNE   12.7   13.9   12.8  1020.2  0.00   0.0   0.016   0.000   27.0    50   15.7   27.1   9.14 1.1640    114    1    100.0    5 
 2/09/14   5:30   13.8   13.8   13.8    95   13.0   8.0   NNE   0.67  12.0   NNE   12.7   13.9   12.8  1020.2  0.00   0.0   0.016   0.000   27.0    50   15.7   27.1   9.14 1.1640    117    1    100.0    5 
 2/09/14   5:35   13.8   13.8   13.8    95   13.0   8.0   NNE   0.67  12.0   NNE   12.6   13.9   12.7  1020.1  0.00   0.0   0.016   0.000   27.0    50   15.7   27.1   9.14 1.1639    117    1    100.0    5 
 2/09/14   5:40   13.8   13.8   13.8    95   13.0   8.0   NNE   0.67  13.0   NNE   12.6   13.9   12.7  1020.1  0.00   0.0   0.016   0.000   26.9    50   15.6   27.0   9.14 1.1642    115    1    100.0    5 
 2/09/14   5:45   13.8   13.8   13.8    95   13.0   8.0   NNE   0.67  12.0   NNE   12.6   13.9   12.7  1020.1  0.00   0.0   0.016   0.000   26.9    50   15.6   27.0   9.14 1.1642    116    1    100.0    5 
 2/09/14   5:50   13.7   13.8   13.7    95   12.9   8.0   NNE   0.67  13.0   NNE   12.5   13.8   12.6  1020.2  0.00   0.0   0.016   0.000   26.9    50   15.6   26.9   9.14 1.1646    117    1    100.0    5 
 2/09/14   5:55   13.7   13.7   13.7    95   12.9   7.0   NNE   0.58  12.0   NNE   12.8   13.8   12.9  1020.3  0.00   0.0   0.016   0.000   26.9    50   15.6   26.9   9.14 1.1647    116    1    100.0    5 
 2/09/14   6:00   13.7   13.7   13.7    95   12.9   8.0   NNE   0.67  12.0   NNE   12.4   13.8   12.6  1020.3  0.00   0.0   0.016   0.000   26.9    50   15.6   26.9   9.14 1.1647    117    1    100.0    5 
 2/09/14   6:05   13.6   13.7   13.6    95   12.8   8.0   NNE   0.67  12.0     N   12.4   13.7   12.5  1020.4  0.00   0.0   0.016   0.000   26.9    50   15.6   26.9   9.14 1.1648    115    1    100.0    5 
 2/09/14   6:10   13.6   13.6   13.6    95   12.8   9.0   NNE   0.75  14.0   NNE   12.0   13.7   12.1  1020.4  0.00   0.0   0.016   0.000   26.8    50   15.5   26.9   9.14 1.1651    117    1    100.0    5 
 2/09/14   6:15   13.6   13.6   13.6    95   12.8   7.0   NNE   0.58  12.0   NNE   12.8   13.7   12.9  1020.4  0.00   0.0   0.016   0.000   26.8    50   15.5   26.9   9.14 1.1652    115    1    100.0    5 
 2/09/14   6:20   13.6   13.6   13.6    95   12.8   8.0   NNE   0.67  14.0   NNE   12.3   13.7   12.4  1020.4  0.00   0.0   0.017   0.000   26.8    50   15.5   26.9   9.14 1.1652    117    1    100.0    5 
 2/09/14   6:25   13.6   13.6   13.6    95   12.8   8.0   NNE   0.67  12.0     N   12.3   13.7   12.4  1020.5  0.00   0.0   0.017   0.000   26.8    50   15.5   26.9   9.14 1.1652    118    1    100.0    5 
 2/09/14   6:30   13.6   13.6   13.6    95   12.8  10.0   NNE   0.83  14.0   NNE   11.6   13.7   11.7  1020.5  0.00   0.0   0.017   0.000   26.8    50   15.5   26.8   9.15 1.1655    114    1    100.0    5 
 2/09/14   6:35   13.6   13.6   13.6    95   12.8   9.0   NNE   0.75  15.0   NNE   11.9   13.7   12.0  1020.4  0.00   0.0   0.017   0.000   26.8    50   15.5   26.8   9.15 1.1654    117    1    100.0    5 
 2/09/14   6:40   13.5   13.6   13.5    95   12.7   7.0   NNE   0.58  15.0   NNE   12.7   13.6   12.8  1020.4  0.00   0.0   0.017   0.000   26.7    50   15.4   26.8   9.15 1.1656    116    1    100.0    5 
 2/09/14   6:45   13.5   13.5   13.4    95   12.7   8.0   NNE   0.67  11.0     N   12.3   13.6   12.4  1020.5  0.00   0.0   0.017   0.000   26.7    50   15.4   26.8   9.15 1.1658    116    1    100.0    5 
 2/09/14   6:50   13.5   13.5   13.4    95   12.7   9.0   NNE   0.75  14.0   NNE   11.8   13.6   11.9  1020.5  0.00   0.0   0.017   0.000   26.7    50   15.4   26.8   9.15 1.1658    116    1    100.0    5 
 2/09/14   6:55   13.5   13.5   13.5    95   12.7   8.0   NNE   0.67  14.0    NE   12.3   13.6   12.4  1020.6  0.00   0.0   0.017   0.000   26.7    50   15.4   26.7   9.15 1.1662    116    1    100.0    5 
 2/09/14   7:00   13.5   13.5   13.5    95   12.7   4.0    NE   0.33  11.0   WNW   13.4   13.6   13.6  1020.8  0.00   0.0   0.017   0.000   26.7    50   15.4   26.8   9.15 1.1661    117    1    100.0    5 
 2/09/14   7:05   13.5   13.5   13.5    95   12.7   3.0     E   0.25   8.0   ENE   13.5   13.6   13.6  1020.9  0.00   0.0   0.017   0.000   26.7    50   15.4   26.7   9.15 1.1666    116    1    100.0    5 
 2/09/14   7:10   13.6   13.6   13.5    95   12.8   4.0   ENE   0.33   8.0   ENE   13.6   13.7   13.7  1021.0  0.00   0.0   0.016   0.000   26.7    50   15.4   26.7   9.15 1.1667    116    1    100.0    5 
 2/09/14   7:15   13.7   13.7   13.6    96   13.0   4.0   NNE   0.33   7.0    NE   13.6   13.8   13.7  1021.2  0.00   0.0   0.016   0.000   26.6    50   15.3   26.7   9.15 1.1671    116    1    100.0    5 
 2/09/14   7:20   13.8   13.8   13.7    95   13.0   4.0    NE   0.33   9.0   ENE   13.8   13.9   13.9  1021.2  0.00   0.0   0.016   0.000   26.6    50   15.3   26.7   9.15 1.1672    116    1    100.0    5 
 2/09/14   7:25   13.8   13.8   13.8    95   13.0   3.0   ESE   0.25   7.0   ENE   13.8   13.9   13.9  1021.4  0.00   0.0   0.016   0.000   26.6    50   15.3   26.6   9.15 1.1677    118    1    100.0    5 
 2/09/14   7:30   13.8   13.8   13.8    95   13.0   4.0   NNE   0.33   8.0    NE   13.8   13.9   13.9  1021.4  0.00   0.0   0.016   0.000   26.6    50   15.3   26.6   9.15 1.1677    117    1    100.0    5 
 2/09/14   7:35   13.9   13.9   13.8    95   13.1   3.0    NE   0.25   9.0   ENE   13.9   14.0   14.0  1021.4  0.00   0.0   0.015   0.000   26.6    50   15.3   26.6   9.15 1.1677    117    1    100.0    5 
 2/09/14   7:40   13.9   13.9   13.8    95   13.1   5.0    NE   0.42  10.0    NE   13.6   14.0   13.7  1021.5  0.00   0.0   0.015   0.000   26.6    50   15.3   26.6   9.15 1.1678    116    1    100.0    5 
 2/09/14   7:45   13.9   13.9   13.9    95   13.2   5.0    NE   0.42   9.0   ENE   13.6   14.1   13.7  1021.5  0.00   0.0   0.015   0.000   26.5    50   15.2   26.6   9.16 1.1681    115    1    100.0    5 
 2/09/14   7:50   13.9   13.9   13.9    95   13.2   5.0   ENE   0.42  13.0   ENE   13.6   14.1   13.7  1021.5  0.00   0.0   0.015   0.000   26.5    50   15.2   26.6   9.16 1.1681    117    1    100.0    5 
 2/09/14   7:55   14.0   14.0   13.9    95   13.2   3.0   NNE   0.25   8.0    NE   14.0   14.1   14.1  1021.5  0.00   0.0   0.015   0.000   26.5    50   15.2   26.6   9.16 1.1681    115    1    100.0    5 
 2/09/14   8:00   14.1   14.1   14.0    96   13.4   5.0    NE   0.42   9.0   NNE   13.8   14.2   13.9  1021.5  0.00   0.0   0.015   0.000   26.5    50   15.2   26.6   9.16 1.1681    117    1    100.0    5 
 2/09/14   8:05   14.1   14.1   14.1    95   13.3   5.0   NNE   0.42  10.0    NE   13.8   14.2   13.9  1021.5  0.00   0.0   0.015   0.000   26.5    50   15.2   26.6   9.16 1.1681    115    1    100.0    5 
 2/09/14   8:10   14.1   14.1   14.1    95   13.3   5.0    NE   0.42  10.0    NE   13.8   14.2   13.9  1021.5  0.00   0.0   0.015   0.000   26.4    50   15.2   26.5   9.16 1.1684    116    1    100.0    5 
 2/09/14   8:15   14.2   14.2   14.1    95   13.4   5.0    NE   0.42  10.0   NNE   13.9   14.3   14.1  1021.6  0.00   0.0   0.014   0.000   26.4    50   15.2   26.5   9.16 1.1685    117    1    100.0    5 
 2/09/14   8:20   14.2   14.2   14.2    95   13.4   6.0   NNE   0.50  13.0   NNE   13.7   14.4   13.9  1021.6  0.00   0.0   0.014   0.000   26.4    50   15.2   26.5   9.16 1.1685    117    1    100.0    5 
 2/09/14   8:25   14.2   14.2   14.2    95   13.4   8.0   NNE   0.67  12.0    NE   13.1   14.4   13.3  1021.7  0.00   0.0   0.014   0.000   26.4    50   15.1   26.4   9.16 1.1689    117    1    100.0    5 
 2/09/14   8:30   14.2   14.2   14.2    95   13.4   6.0   NNE   0.50  13.0   NNE   13.7   14.4   13.9  1021.8  0.00   0.0   0.014   0.000   26.4    50   15.2   26.5   9.16 1.1687    117    1    100.0    5 
 2/09/14   8:35   14.2   14.2   14.2    95   13.4   3.0   NNE   0.25   9.0   NNE   14.2   14.4   14.4  1021.8  0.00   0.0   0.014   0.000   26.4    50   15.1   26.4   9.16 1.1691    115    1    100.0    5 
 2/09/14   8:40   14.2   14.2   14.2    95   13.4   7.0   NNE   0.58  11.0   NNE   13.5   14.4   13.7  1021.9  0.00   0.0   0.014   0.000   26.4    50   15.1   26.4   9.16 1.1691    117    1    100.0    5 
 2/09/14   8:45   14.3   14.3   14.2    95   13.5   5.0   NNE   0.42   8.0   NNE   14.0   14.4   14.2  1021.9  0.00   0.0   0.014   0.000   26.3    50   15.1   26.4   9.16 1.1694    116    1    100.0    5 
 2/09/14   8:50   14.3   14.3   14.3    95   13.5   6.0   NNE   0.50  10.0   NNE   13.8   14.4   13.9  1022.0  0.00   0.0   0.014   0.000   26.3    50   15.1   26.4   9.16 1.1695    117    1    100.0    5 
 2/09/14   8:55   14.3   14.3   14.3    96   13.7   5.0    NE   0.42  10.0    NE   14.1   14.5   14.3  1022.1  0.00   0.0   0.014   0.000   26.3    50   15.1   26.4   9.16 1.1696    117    1    100.0    5 
 2/09/14   9:00   14.3   14.3   14.3    96   13.7   6.0    NE   0.50   9.0   ENE   13.9   14.5   14.1  1022.2  0.00   0.0   0.014   0.000   26.3    50   15.1   26.4   9.16 1.1697    116    1    100.0    5 
 2/09/14   9:05   14.3   14.4   14.3    95   13.5   7.0   NNE   0.58  13.0    NE   13.7   14.5   13.8  1022.2  0.00   0.0   0.014   0.000   26.3    51   15.4   26.5   9.35 1.1694    117    1    100.0    5 
 2/09/14   9:10   14.3   14.3   14.3    95   13.5   7.0   NNE   0.58  12.0   NNE   13.7   14.5   13.8  1022.2  0.00   0.0   0.014   0.000   26.3    51   15.4   26.5   9.35 1.1693    116    1    100.0    5 
 2/09/14   9:15   14.4   14.4   14.3    96   13.8   5.0    NE   0.42  11.0    NE   14.2   14.6   14.3  1022.1  0.00   0.0   0.014   0.000   26.3    51   15.4   26.5   9.35 1.1693    117    1    100.0    5 
 2/09/14   9:20   14.4   14.4   14.4    96   13.8   6.0    NE   0.50  12.0   NNE   14.0   14.6   14.2  1022.2  0.00   0.0   0.014   0.000   26.4    51   15.4   26.6   9.35 1.1691    116    1    100.0    5 
 2/09/14   9:25   14.5   14.5   14.4    96   13.9   7.0   NNE   0.58  11.0   NNE   13.8   14.7   14.0  1022.2  0.00   0.0   0.013   0.000   26.4    51   15.4   26.6   9.35 1.1691    117    1    100.0    5 
 2/09/14   9:30   14.6   14.6   14.5    95   13.8   6.0   NNE   0.50  12.0    NE   14.1   14.7   14.3  1022.2  0.00   0.0   0.013   0.000   26.4    51   15.4   26.6   9.35 1.1690    116    1    100.0    5 
 2/09/14   9:35   14.6   14.6   14.6    95   13.8   6.0   NNE   0.50  12.0    NE   14.1   14.7   14.3  1022.2  0.00   0.0   0.013   0.000   26.4    51   15.5   26.6   9.35 1.1688    117    1    100.0    5 
 2/09/14   9:40   14.6   14.6   14.6    95   13.8   5.0   NNE   0.42   9.0    NE   14.4   14.8   14.6  1022.2  0.00   0.0   0.013   0.000   26.4    51   15.4   26.6   9.35 1.1691    117    1    100.0    5 
 2/09/14   9:45   14.7   14.7   14.6    95   13.9   6.0   NNE   0.50  10.0   NNE   14.3   14.8   14.4  1022.3  0.00   0.0   0.013   0.000   26.4    51   15.4   26.6   9.35 1.1692    116    1    100.0    5 
 2/09/14   9:50   14.6   14.7   14.6    95   13.8   6.0   NNE   0.50  11.0   NNE   14.2   14.8   14.4  1022.4  0.00   0.0   0.013   0.000   26.4    51   15.5   26.6   9.35 1.1690    117    1    100.0    5 
 2/09/14   9:55   14.6   14.6   14.6    95   13.8   5.0    NE   0.42  11.0   ENE   14.4   14.8   14.6  1022.4  0.00   0.0   0.013   0.000   26.4    51   15.5   26.6   9.35 1.1690    117    1    100.0    5 
 2/09/14  10:00   14.7   14.7   14.6    96   14.1   3.0   ENE   0.25  10.0   ENE   14.7   14.9   14.9  1022.4  0.00   0.0   0.013   0.000   26.4    51   15.5   26.6   9.35 1.1691    116    1    100.0    5 
 2/09/14  10:05   14.8   14.8   14.7    95   14.0   5.0   ENE   0.42   8.0   ENE   14.6   15.0   14.8  1022.4  0.00   0.0   0.012   0.000   26.4    51   15.5   26.6   9.35 1.1691    116    1    100.0    5 
 2/09/14  10:10   14.8   14.8   14.8    95   14.0   8.0   NNE   0.67  14.0    NE   13.8   15.0   14.0  1022.4  0.00   0.0   0.012   0.000   26.4    51   15.5   26.6   9.35 1.1691    117    1    100.0    5 
 2/09/14  10:15   14.8   14.8   14.8    95   14.0   7.0   NNE   0.58  13.0    NE   14.2   15.0   14.4  1022.5  0.00   0.0   0.012   0.000   26.4    50   15.1   26.4   9.16 1.1698    117    1    100.0    5 
 2/09/14  10:20   14.8   14.8   14.8    95   14.0   5.0   NNE   0.42   9.0    NE   14.7   15.1   14.9  1022.5  0.00   0.0   0.012   0.000   26.3    50   15.1   26.4   9.16 1.1701    117    1    100.0    5 
 2/09/14  10:25   14.9   14.9   14.8    95   14.2   4.0    NE   0.33   9.0   NNE   14.9   15.2   15.2  1022.5  0.00   0.0   0.012   0.000   26.2    50   15.0   26.3   9.17 1.1706    115    1    100.0    5 
 2/09/14  10:30   15.0   15.0   14.9    95   14.2   5.0   ENE   0.42   8.0    NE   14.9   15.2   15.1  1022.5  0.00   0.0   0.012   0.000   26.2    50   14.9   26.3   9.17 1.1709    116    1    100.0    5 
 2/09/14  10:35   15.1   15.1   15.0    95   14.3   5.0   ENE   0.42   8.0   ENE   15.0   15.3   15.2  1022.6  0.00   0.0   0.011   0.000   26.1    50   14.8   26.2   9.17 1.1716    118    1    100.0    5 
 2/09/14  10:40   15.2   15.2   15.1    95   14.4   5.0    NE   0.42   9.0   ENE   15.2   15.4   15.4  1022.5  0.00   0.0   0.011   0.000   26.0    50   14.8   26.1   9.17 1.1718    116    1    100.0    5 
 2/09/14  10:45   15.3   15.3   15.2    95   14.5   6.0    NE   0.50  10.0    NE   15.1   15.6   15.3  1022.5  0.00   0.0   0.010   0.000   25.9    50   14.7   25.9   9.18 1.1723    116    1    100.0    5 
 2/09/14  10:50   15.4   15.4   15.3    95   14.6   5.0    NE   0.42  10.0    NE   15.4   15.7   15.7  1022.4  0.00   0.0   0.010   0.000   25.8    50   14.6   25.8   9.18 1.1728    117    1    100.0    5 
 2/09/14  10:55   15.6   15.6   15.4    94   14.6   3.0   ENE   0.25   8.0   ENE   15.6   15.8   15.8  1022.5  0.00   0.0   0.010   0.000   25.7    50   14.5   25.8   9.18 1.1732    117    1    100.0    5 
 2/09/14  11:00   15.8   15.8   15.6    94   14.8   4.0   NNE   0.33   9.0   NNE   15.8   16.0   16.0  1022.5  0.00   0.0   0.009   0.000   25.7    50   14.5   25.7   9.19 1.1735    117    1    100.0    5 
 2/09/14  11:05   15.8   15.8   15.8    94   14.8   5.0   NNE   0.42  10.0     N   15.8   16.0   16.0  1022.5  0.00   0.0   0.009   0.000   25.6    50   14.4   25.6   9.19 1.1738    117    1    100.0    5 
 2/09/14  11:10   15.9   15.9   15.8    94   15.0   5.0     E   0.42   9.0   ENE   15.9   16.2   16.2  1022.6  0.00   0.0   0.008   0.000   25.6    51   14.7   25.7   9.35 1.1735    117    1    100.0    5 
 2/09/14  11:15   16.2   16.2   15.9    94   15.2   4.0     E   0.33  10.0   ENE   16.2   16.4   16.4  1022.6  0.00   0.0   0.008   0.000   25.6    51   14.7   25.6   9.35 1.1738    117    1    100.0    5 
 2/09/14  11:20   16.3   16.4   16.2    93   15.2   4.0   ENE   0.33   9.0   ENE   16.3   16.6   16.6  1022.5  0.00   0.0   0.007   0.000   25.6    51   14.7   25.6   9.35 1.1737    117    1    100.0    5 
 2/09/14  11:25   16.4   16.4   16.3    93   15.3   3.0   ENE   0.25   7.0   ENE   16.4   16.8   16.8  1022.6  0.00   0.0   0.007   0.000   25.6    51   14.7   25.6   9.35 1.1737    117    1    100.0    5 
 2/09/14  11:30   16.6   16.6   16.4    93   15.4   3.0   NNE   0.25  10.0    NE   16.6   16.9   16.9  1022.5  0.00   0.0   0.006   0.000   25.5    51   14.6   25.6   9.35 1.1740    117    1    100.0    5 
 2/09/14  11:35   16.8   16.8   16.6    93   15.6   5.0   ENE   0.42  11.0   ENE   16.8   17.1   17.1  1022.5  0.00   0.0   0.005   0.000   25.5    51   14.6   25.6   9.35 1.1739    117    1    100.0    5 
 2/09/14  11:40   16.9   16.9   16.8    92   15.6   3.0    NE   0.25   7.0     E   16.9   17.2   17.2  1022.5  0.00   0.0   0.005   0.000   25.5    51   14.6   25.6   9.35 1.1739    118    1    100.0    5 
 2/09/14  11:45   17.0   17.0   16.9    92   15.7   4.0   ENE   0.33   8.0   ENE   17.0   17.4   17.4  1022.5  0.00   0.0   0.005   0.000   25.5    51   14.6   25.6   9.35 1.1739    115    1    100.0    5 
 2/09/14  11:50   17.2   17.2   17.0    92   15.9   4.0   ENE   0.33  10.0   ENE   17.2   17.6   17.6  1022.4  0.00   0.0   0.004   0.000   25.5    51   14.6   25.6   9.35 1.1739    116    1    100.0    5 
 2/09/14  11:55   17.4   17.4   17.3    91   16.0   5.0   NNE   0.42   8.0    NE   17.4   17.9   17.9  1022.5  0.00   0.0   0.003   0.000   25.5    51   14.6   25.6   9.35 1.1739    117    1    100.0    5 
 2/09/14  12:00   17.7   17.7   17.4    91   16.2   5.0     E   0.42   8.0   ENE   17.7   18.2   18.2  1022.5  0.00   0.0   0.002   0.000   25.5    51   14.6   25.6   9.35 1.1739    117    1    100.0    5 
 2/09/14  12:05   18.2   18.2   17.8    91   16.7   5.0     E   0.42  11.0   ENE   18.2   18.7   18.7  1022.4  0.00   0.0   0.001   0.000   25.5    51   14.6   25.6   9.35 1.1738    116    1    100.0    5 
 2/09/14  12:10   18.9   18.9   18.2    91   17.4   5.0   ESE   0.42  10.0   ESE   18.9   19.7   19.7  1022.5  0.00   0.0   0.000   0.002   25.5    52   14.9   25.6   9.49 1.1735    116    1    100.0    5 
 2/09/14  12:15   19.6   19.6   18.9    89   17.7   6.0     E   0.50  10.0   ENE   19.6   20.4   20.4  1022.5  0.00   0.0   0.000   0.004   25.5    52   14.9   25.6   9.49 1.1736    117    1    100.0    5 
 2/09/14  12:20   19.9   19.9   19.6    87   17.7   5.0   ENE   0.42  10.0     E   19.9   20.8   20.8  1022.5  0.00   0.0   0.000   0.006   25.6    52   15.0   25.7   9.49 1.1732    117    1    100.0    5 
 2/09/14  12:25   20.2   20.2   19.9    86   17.7   5.0     E   0.42   9.0   ESE   20.2   21.1   21.1  1022.5  0.00   0.0   0.000   0.006   25.6    52   15.0   25.7   9.49 1.1730    117    1    100.0    5 
 2/09/14  12:30   20.3   20.3   20.2    84   17.5   4.0   ESE   0.33   9.0   ESE   20.3   21.2   21.2  1022.4  0.00   0.0   0.000   0.007   25.6    52   15.0   25.7   9.49 1.1729    117    1    100.0    5 
 2/09/14  12:35   20.4   20.4   20.3    83   17.4   4.0     E   0.33   8.0   ESE   20.4   21.3   21.3  1022.5  0.00   0.0   0.000   0.007   25.7    52   15.1   25.8   9.49 1.1727    117    1    100.0    5 
 2/09/14  12:40   20.5   20.5   20.4    82   17.3   5.0   ESE   0.42   8.0   ESE   20.5   21.4   21.4  1022.4  0.00   0.0   0.000   0.008   25.7    52   15.1   25.8   9.49 1.1726    116    1    100.0    5 
 2/09/14  12:45   20.6   20.6   20.5    81   17.2   5.0    SE   0.42   7.0    SE   20.6   21.4   21.4  1022.4  0.00   0.0   0.000   0.008   25.7    52   15.1   25.8   9.48 1.1723    118    1    100.0    5 
 2/09/14  12:50   20.5   20.6   20.5    80   16.9   6.0   ESE   0.50   8.0   ESE   20.5   21.3   21.3  1022.3  0.00   0.0   0.000   0.008   25.7    52   15.1   25.8   9.48 1.1722    116    1    100.0    5 
 2/09/14  12:55   20.6   20.6   20.5    80   17.0   7.0   ESE   0.58   9.0   ESE   20.6   21.4   21.4  1022.3  0.00   0.0   0.000   0.008   25.7    52   15.1   25.8   9.48 1.1722    115    1    100.0    5 
 2/09/14  13:00   20.9   20.9   20.6    79   17.1   8.0   ESE   0.67  10.0   ESE   20.6   21.6   21.2  1022.3  0.00   0.0   0.000   0.009   25.7    52   15.1   25.8   9.48 1.1721    116    1    100.0    5 
 2/09/14  13:05   21.3   21.3   20.9    79   17.5   7.0   ESE   0.58  10.0   ESE   21.3   21.9   21.9  1022.3  0.00   0.0   0.000   0.010   25.7    52   15.1   25.8   9.48 1.1722    116    1    100.0    5 
 2/09/14  13:10   21.7   21.7   21.3    77   17.5   6.0   ESE   0.50   9.0   ESE   21.7   22.3   22.3  1022.3  0.00   0.0   0.000   0.012   25.7    52   15.1   25.8   9.48 1.1722    116    1    100.0    5 
 2/09/14  13:15   22.3   22.3   21.8    77   18.0   5.0   ESE   0.42   8.0   ESE   22.3   22.9   22.9  1022.3  0.00   0.0   0.000   0.014   25.8    52   15.2   25.9   9.48 1.1719    116    1    100.0    5 
 2/09/14  13:20   22.7   22.7   22.3    74   17.8   7.0   ESE   0.58   9.0   ESE   22.7   23.5   23.5  1022.2  0.00   0.0   0.000   0.015   25.8    52   15.2   25.9   9.48 1.1717    117    1    100.0    5 
 2/09/14  13:25   23.1   23.1   22.7    72   17.8   7.0   ESE   0.58   9.0   ESE   23.1   23.9   23.9  1022.2  0.00   0.0   0.000   0.017   25.8    52   15.2   25.9   9.48 1.1718    116    1    100.0    5 
 2/09/14  13:30   23.6   23.6   23.1    73   18.4   5.0   ESE   0.42   8.0   ESE   23.6   24.6   24.6  1022.2  0.00   0.0   0.000   0.018   25.8    52   15.2   25.9   9.48 1.1718    117    1    100.0    5 
 2/09/14  13:35   23.9   23.9   23.6    71   18.4   4.0    SE   0.33   7.0    SE   23.9   24.9   24.9  1022.2  0.00   0.0   0.000   0.019   25.8    52   15.2   26.0   9.48 1.1715    116    1    100.0    5 
 2/09/14  13:40   24.1   24.1   23.9    71   18.5   4.0   ESE   0.33   7.0   ESE   24.1   25.1   25.1  1022.1  0.00   0.0   0.000   0.020   25.8    52   15.2   26.0   9.48 1.1714    117    1    100.0    5 
 2/09/14  13:45   24.2   24.2   24.1    71   18.6   3.0   ESE   0.25   6.0    SE   24.2   25.3   25.3  1022.1  0.00   0.0   0.000   0.020   25.9    52   15.3   26.1   9.48 1.1711    117    1    100.0    5 
 2/09/14  13:50   24.5   24.5   24.2    69   18.4   5.0   ESE   0.42   7.0    SE   24.5   25.4   25.4  1022.0  0.00   0.0   0.000   0.021   25.9    52   15.3   26.1   9.48 1.1711    116    1    100.0    5 
 2/09/14  13:55   24.8   24.8   24.5    66   18.0   4.0   ESE   0.33   8.0   ESE   24.8   25.6   25.6  1021.9  0.00   0.0   0.000   0.022   25.9    52   15.3   26.1   9.48 1.1707    117    1    100.0    5 
 2/09/14  14:00   24.8   24.8   24.8    65   17.8   4.0    SE   0.33   6.0    SE   24.8   25.5   25.5  1022.0  0.00   0.0   0.000   0.022   25.9    52   15.3   26.1   9.48 1.1707    117    1    100.0    5 
 2/09/14  14:05   25.0   25.0   24.8    63   17.5   4.0    SE   0.33   6.0    SE   25.0   25.6   25.6  1022.0  0.00   0.0   0.000   0.023   25.9    51   15.0   26.1   9.35 1.1711    116    1    100.0    5 
 2/09/14  14:10   24.8   25.1   24.8    62   17.1   5.0   SSE   0.42   7.0   SSE   24.8   25.4   25.4  1022.0  0.00   0.0   0.000   0.023   25.9    51   15.0   26.1   9.35 1.1711    117    1    100.0    5 
 2/09/14  14:15   23.7   24.8   23.7    63   16.2   4.0   SSE   0.33   6.0   SSE   23.7   24.3   24.3  1022.0  0.00   0.0   0.000   0.019   25.9    51   15.0   26.1   9.35 1.1711    117    1    100.0    5 
 2/09/14  14:20   22.9   23.6   22.9    66   16.3   3.0   SSE   0.25   5.0     S   22.9   23.4   23.4  1022.0  0.00   0.0   0.000   0.016   25.9    52   15.3   26.1   9.48 1.1711    117    1    100.0    5 
 2/09/14  14:25   22.7   22.9   22.7    68   16.5   3.0   SSE   0.25   5.0   SSE   22.7   23.2   23.2  1022.0  0.00   0.0   0.000   0.015   25.9    52   15.3   26.1   9.48 1.1710    116    1    100.0    5 
 2/09/14  14:30   22.8   22.9   22.7    67   16.4   5.0    SE   0.42   7.0   SSE   22.8   23.3   23.3  1022.0  0.00   0.0   0.000   0.016   25.9    52   15.3   26.1   9.48 1.1710    117    1    100.0    5 
 2/09/14  14:35   22.7   22.9   22.7    67   16.3   6.0   SSE   0.50   7.0   SSE   22.7   23.2   23.2  1021.9  0.00   0.0   0.000   0.015   25.8    52   15.2   26.0   9.48 1.1712    116    1    100.0    5 
 2/09/14  14:40   22.8   22.8   22.7    68   16.6   6.0   SSE   0.50   8.0   SSE   22.8   23.4   23.4  1021.9  0.00   0.0   0.000   0.016   25.8    52   15.2   26.0   9.48 1.1712    117    1    100.0    5 
 2/09/14  14:45   23.1   23.1   22.8    66   16.4   5.0   SSE   0.42   8.0    SE   23.1   23.6   23.6  1022.0  0.00   0.0   0.000   0.016   25.8    52   15.2   25.9   9.48 1.1715    117    1    100.0    5 
 2/09/14  14:50   22.6   23.0   22.6    66   15.9   4.0   SSE   0.33   5.0   SSE   22.6   23.0   23.0  1022.0  0.00   0.0   0.000   0.015   25.8    52   15.2   25.9   9.48 1.1715    117    1    100.0    5 
 2/09/14  14:55   21.9   22.6   21.9    68   15.7   5.0   SSE   0.42   7.0   SSE   21.9   22.1   22.1  1021.9  0.00   0.0   0.000   0.012   25.8    53   15.5   26.1   9.65 1.1708    115    1    100.0    5 
 2/09/14  15:00   22.1   22.1   21.8    71   16.6   6.0   SSE   0.50   7.0   SSE   22.1   22.4   22.4  1022.0  0.00   0.0   0.000   0.013   25.9    53   15.6   26.1   9.65 1.1706    117    1    100.0    5 
 2/09/14  15:05   22.1   22.2   22.1    68   15.9   6.0   SSE   0.50   8.0   SSE   22.1   22.3   22.3  1021.9  0.00   0.0   0.000   0.013   25.9    53   15.6   26.2   9.65 1.1702    117    1    100.0    5 
 2/09/14  15:10   21.3   22.1   21.3    70   15.6   5.0     S   0.42   7.0     S   21.3   21.4   21.4  1021.9  0.00   0.0   0.000   0.010   26.0    54   16.0   26.3   9.77 1.1696    117    1    100.0    5 
 2/09/14  15:15   20.5   21.2   20.5    73   15.5   5.0   SSW   0.42   7.0     S   20.5   20.9   20.9  1021.8  0.00   0.0   0.000   0.008   26.1    54   16.0   26.3   9.77 1.1692    116    1    100.0    5 
 2/09/14  15:20   20.2   20.5   20.2    75   15.6   5.0   SSW   0.42   7.0   SSW   20.2   20.7   20.7  1021.8  0.00   0.0   0.000   0.007   26.1    54   16.1   26.4   9.77 1.1688    116    1    100.0    5 
 2/09/14  15:25   20.2   20.2   20.2    75   15.6   4.0     S   0.33   6.0     S   20.2   20.7   20.7  1021.8  0.00   0.0   0.000   0.006   26.2    54   16.2   26.5   9.77 1.1682    114    1    100.0    5 
 2/09/14  15:30   20.0   20.2   20.0    75   15.4   3.0   SSW   0.25   4.0     S   20.0   20.5   20.5  1021.7  0.00   0.0   0.000   0.006   26.3    54   16.2   26.6   9.76 1.1679    116    1    100.0    5 
 2/09/14  15:35   19.9   20.0   19.9    76   15.6   3.0   SSW   0.25   5.0   SSW   19.9   20.5   20.5  1021.6  0.00   0.0   0.000   0.006   26.3    54   16.3   26.6   9.76 1.1675    116    1    100.0    5 
 2/09/14  15:40   19.8   19.9   19.8    76   15.5   3.0   SSW   0.25   4.0   SSW   19.8   20.3   20.3  1021.6  0.00   0.0   0.000   0.005   26.4    54   16.3   26.7   9.76 1.1672    117    1    100.0    5 
 2/09/14  15:45   19.9   19.9   19.8    76   15.5   3.0   SSW   0.25   5.0   SSW   19.9   20.4   20.4  1021.6  0.00   0.0   0.000   0.005   26.5    54   16.4   26.8   9.76 1.1666    116    1    100.0    5 
 2/09/14  15:50   20.1   20.1   19.9    77   16.0   5.0     S   0.42   7.0     S   20.1   20.7   20.7  1021.6  0.00   0.0   0.000   0.006   26.6    54   16.5   26.9   9.75 1.1663    118    1    100.0    5 
 2/09/14  15:55   20.1   20.2   20.1    76   15.7   6.0     S   0.50   7.0     S   20.1   20.6   20.6  1021.6  0.00   0.0   0.000   0.006   26.7    54   16.6   27.0   9.75 1.1658    116    1    100.0    5 
 2/09/14  16:00   19.9   20.1   19.9    76   15.6   6.0     S   0.50   7.0   SSW   19.9   20.5   20.5  1021.6  0.00   0.0   0.000   0.006   26.7    54   16.6   27.1   9.75 1.1655    116    1    100.0    5 
 2/09/14  16:05   20.1   20.1   19.9    77   16.0   4.0     S   0.33   6.0     S   20.1   20.7   20.7  1021.6  0.00   0.0   0.000   0.006   26.8    54   16.7   27.2   9.75 1.1649    116    1    100.0    5 
 2/09/14  16:10   20.2   20.2   20.1    76   15.8   4.0     S   0.33   6.0     S   20.2   20.7   20.7  1021.5  0.00   0.0   0.000   0.006   26.9    54   16.8   27.3   9.75 1.1645    117    1    100.0    5 
 2/09/14  16:15   20.1   20.2   20.1    76   15.7   5.0     S   0.42   7.0     S   20.1   20.6   20.6  1021.5  0.00   0.0   0.000   0.006   26.9    54   16.8   27.3   9.75 1.1642    117    1    100.0    5 
 2/09/14  16:20   20.2   20.2   20.1    77   16.0   5.0     S   0.42   7.0     S   20.2   20.8   20.8  1021.4  0.00   0.0   0.000   0.006   27.1    54   16.9   27.4   9.75 1.1635    116    1    100.0    5 
 2/09/14  16:25   20.5   20.5   20.2    76   16.1   4.0     S   0.33   6.0   SSE   20.5   21.1   21.1  1021.4  0.00   0.0   0.000   0.008   27.1    53   16.7   27.4   9.63 1.1637    116    1    100.0    5 
 2/09/14  16:30   20.8   20.8   20.5    76   16.4   4.0   SSE   0.33   5.0   SSE   20.8   21.3   21.3  1021.4  0.00   0.0   0.000   0.008   27.2    53   16.8   27.5   9.63 1.1634    115    1    100.0    5 
 2/09/14  16:35   21.0   21.1   20.8    75   16.4   3.0     S   0.25   5.0     S   21.0   21.4   21.4  1021.4  0.00   0.0   0.000   0.009   27.2    53   16.8   27.6   9.63 1.1630    116    1    100.0    5 
 2/09/14  16:40   21.3   21.3   21.1    75   16.7   3.0   SSE   0.25   5.0   SSE   21.3   21.7   21.7  1021.3  0.00   0.0   0.000   0.010   27.3    53   16.9   27.7   9.63 1.1627    116    1    100.0    5 
 2/09/14  16:45   21.9   21.9   21.4    75   17.3   3.0   SSE   0.25   5.0   SSE   21.9   22.4   22.4  1021.3  0.20   0.0   0.000   0.013   27.3    53   16.9   27.7   9.63 1.1624    116    1    100.0    5 
 2/09/14  16:50   22.2   22.2   22.0    72   16.9   3.0   SSE   0.25   4.0   SSE   22.2   22.6   22.6  1021.3  0.00   0.0   0.000   0.013   27.4    53   17.0   27.8   9.62 1.1621    116    1    100.0    5 
 2/09/14  16:55   22.4   22.4   22.2    73   17.4   4.0   SSE   0.33   5.0   SSE   22.4   23.1   23.1  1021.4  0.00   0.0   0.000   0.014   27.4    53   17.0   27.8   9.62 1.1622    118    1    100.0    5 
 2/09/14  17:00   22.8   22.8   22.4    72   17.5   4.0    SE   0.33   6.0    SE   22.8   23.6   23.6  1021.3  0.00   0.0   0.000   0.016   27.4    53   17.0   27.9   9.62 1.1618    115    1    100.0    5 
 2/09/14  17:05   23.3   23.3   22.9    69   17.3   3.0   SSE   0.25   5.0   SSE   23.3   24.1   24.1  1021.3  0.00   0.0   0.000   0.017   27.5    53   17.1   28.0   9.62 1.1615    117    1    100.0    5 
 2/09/14  17:10   22.8   23.3   22.8    68   16.6   3.0   SSE   0.25   5.0   SSE   22.8   23.4   23.4  1021.3  0.00   0.0   0.000   0.016   27.6    53   17.1   28.1   9.62 1.1613    117    1    100.0    5 
 2/09/14  17:15   22.3   22.8   22.3    70   16.5   3.0   SSE   0.25   4.0   SSE   22.3   22.7   22.7  1021.3  0.00   0.0   0.000   0.014   27.6    53   17.1   28.1   9.62 1.1613    117    1    100.0    5 
 2/09/14  17:20   22.2   22.3   22.2    70   16.4   2.0   SSE   0.17   4.0   SSE   22.2   22.6   22.6  1021.4  0.00   0.0   0.000   0.013   27.6    53   17.2   28.1   9.62 1.1610    117    1    100.0    5 
 2/09/14  17:25   22.2   22.3   22.2    70   16.5   1.0   SSE   0.08   3.0   SSE   22.2   22.6   22.6  1021.3  0.00   0.0   0.000   0.014   27.6    53   17.2   28.1   9.62 1.1609    117    1    100.0    5 
 2/09/14  17:30   22.3   22.3   22.2    71   16.8   1.0   SSE   0.08   2.0   SSE   22.3   22.7   22.7  1021.3  0.00   0.0   0.000   0.014   27.7    53   17.3   28.3   9.61 1.1603    117    1    100.0    5 
103208